<?xml version="1.0" encoding="UTF-8" standalone="no" ?>
<gpx xmlns="http://www.topografix.com/GPX/1/1" xmlns:xsi="http://www.w3.org/2001/XMLSchema-instance" xsi:schemaLocation="http://www.topografix.com/GPX/1/1 http://www.topografix.com/GPX/1/1/gpx.xsd" version="1.1" creator="VisuGPX - https://www.visugpx.com">
  <metadata>
    <name>Pech de Bade au dessus de Siran</name>
    <desc><![CDATA[Description :
Départ au dessus de Siran près de La chapelle de Centeilles. Nous choisissons les chemins et nous gravissons les étages... découvrons les fours à chaux. Derrière les murs, les vignes, l'image du Minervois enfin se présente aux yeux de l'oiseau éperdu... dans la plus grande innocence nous grimpons les bons raidillons.

]]></desc>
  </metadata>
  <trk>
    <name><![CDATA[27-NOV-17 16:48:40]]></name>
    <trkseg>
      <trkpt lat="43.33239" lon="2.66102">
        <ele>65.99</ele>
        <time>2017-11-27T12:53:32Z</time>
      </trkpt>
      <trkpt lat="43.33238" lon="2.66102">
        <ele>66.47</ele>
        <time>2017-11-27T12:53:33Z</time>
      </trkpt>
      <trkpt lat="43.33237" lon="2.66102">
        <ele>65.99</ele>
        <time>2017-11-27T12:53:34Z</time>
      </trkpt>
      <trkpt lat="43.3324" lon="2.66098">
        <ele>70.79</ele>
        <time>2017-11-27T12:53:40Z</time>
      </trkpt>
      <trkpt lat="43.33241" lon="2.66098">
        <ele>75.12</ele>
        <time>2017-11-27T12:53:41Z</time>
      </trkpt>
      <trkpt lat="43.33241" lon="2.66096">
        <ele>79.45</ele>
        <time>2017-11-27T12:53:42Z</time>
      </trkpt>
      <trkpt lat="43.33241" lon="2.66095">
        <ele>83.29</ele>
        <time>2017-11-27T12:53:43Z</time>
      </trkpt>
      <trkpt lat="43.33242" lon="2.66094">
        <ele>86.66</ele>
        <time>2017-11-27T12:53:44Z</time>
      </trkpt>
      <trkpt lat="43.33242" lon="2.66092">
        <ele>90.5</ele>
        <time>2017-11-27T12:53:45Z</time>
      </trkpt>
      <trkpt lat="43.33242" lon="2.66091">
        <ele>94.35</ele>
        <time>2017-11-27T12:53:46Z</time>
      </trkpt>
      <trkpt lat="43.33243" lon="2.66087">
        <ele>103.96</ele>
        <time>2017-11-27T12:53:49Z</time>
      </trkpt>
      <trkpt lat="43.33244" lon="2.66084">
        <ele>109.73</ele>
        <time>2017-11-27T12:53:51Z</time>
      </trkpt>
      <trkpt lat="43.33245" lon="2.66082">
        <ele>114.53</ele>
        <time>2017-11-27T12:53:53Z</time>
      </trkpt>
      <trkpt lat="43.33246" lon="2.66079">
        <ele>119.82</ele>
        <time>2017-11-27T12:53:55Z</time>
      </trkpt>
      <trkpt lat="43.33246" lon="2.66075">
        <ele>127.03</ele>
        <time>2017-11-27T12:53:58Z</time>
      </trkpt>
      <trkpt lat="43.33247" lon="2.66073">
        <ele>130.88</ele>
        <time>2017-11-27T12:54:00Z</time>
      </trkpt>
      <trkpt lat="43.33247" lon="2.66071">
        <ele>134.72</ele>
        <time>2017-11-27T12:54:02Z</time>
      </trkpt>
      <trkpt lat="43.33248" lon="2.66068">
        <ele>138.09</ele>
        <time>2017-11-27T12:54:04Z</time>
      </trkpt>
      <trkpt lat="43.33248" lon="2.66066">
        <ele>141.93</ele>
        <time>2017-11-27T12:54:06Z</time>
      </trkpt>
      <trkpt lat="43.33248" lon="2.66063">
        <ele>145.3</ele>
        <time>2017-11-27T12:54:08Z</time>
      </trkpt>
      <trkpt lat="43.33249" lon="2.66059">
        <ele>149.14</ele>
        <time>2017-11-27T12:54:11Z</time>
      </trkpt>
      <trkpt lat="43.33249" lon="2.66056">
        <ele>153.47</ele>
        <time>2017-11-27T12:54:14Z</time>
      </trkpt>
      <trkpt lat="43.3325" lon="2.6605">
        <ele>157.79</ele>
        <time>2017-11-27T12:54:18Z</time>
      </trkpt>
      <trkpt lat="43.33251" lon="2.66047">
        <ele>161.16</ele>
        <time>2017-11-27T12:54:21Z</time>
      </trkpt>
      <trkpt lat="43.33252" lon="2.66046">
        <ele>162.12</ele>
        <time>2017-11-27T12:54:22Z</time>
      </trkpt>
      <trkpt lat="43.33255" lon="2.66041">
        <ele>166.45</ele>
        <time>2017-11-27T12:54:27Z</time>
      </trkpt>
      <trkpt lat="43.33258" lon="2.66039">
        <ele>170.29</ele>
        <time>2017-11-27T12:54:32Z</time>
      </trkpt>
      <trkpt lat="43.3326" lon="2.66038">
        <ele>173.17</ele>
        <time>2017-11-27T12:54:37Z</time>
      </trkpt>
      <trkpt lat="43.33261" lon="2.66035">
        <ele>175.58</ele>
        <time>2017-11-27T12:54:41Z</time>
      </trkpt>
      <trkpt lat="43.3326" lon="2.66028">
        <ele>178.94</ele>
        <time>2017-11-27T12:54:48Z</time>
      </trkpt>
      <trkpt lat="43.33258" lon="2.66022">
        <ele>181.83</ele>
        <time>2017-11-27T12:54:56Z</time>
      </trkpt>
      <trkpt lat="43.33257" lon="2.66021">
        <ele>182.31</ele>
        <time>2017-11-27T12:54:57Z</time>
      </trkpt>
      <trkpt lat="43.33256" lon="2.66013">
        <ele>185.19</ele>
        <time>2017-11-27T12:55:08Z</time>
      </trkpt>
      <trkpt lat="43.33256" lon="2.66011">
        <ele>185.67</ele>
        <time>2017-11-27T12:55:09Z</time>
      </trkpt>
      <trkpt lat="43.33258" lon="2.65997">
        <ele>188.56</ele>
        <time>2017-11-27T12:55:21Z</time>
      </trkpt>
      <trkpt lat="43.33261" lon="2.65984">
        <ele>190</ele>
        <time>2017-11-27T12:55:33Z</time>
      </trkpt>
      <trkpt lat="43.33263" lon="2.65979">
        <ele>191.44</ele>
        <time>2017-11-27T12:55:40Z</time>
      </trkpt>
      <trkpt lat="43.33264" lon="2.65971">
        <ele>190.96</ele>
        <time>2017-11-27T12:55:53Z</time>
      </trkpt>
      <trkpt lat="43.33264" lon="2.65971">
        <ele>191.44</ele>
        <time>2017-11-27T12:56:02Z</time>
      </trkpt>
      <trkpt lat="43.33264" lon="2.6597">
        <ele>191.44</ele>
        <time>2017-11-27T12:56:19Z</time>
      </trkpt>
      <trkpt lat="43.33268" lon="2.65964">
        <ele>191.92</ele>
        <time>2017-11-27T12:56:30Z</time>
      </trkpt>
      <trkpt lat="43.33271" lon="2.65953">
        <ele>192.88</ele>
        <time>2017-11-27T12:56:41Z</time>
      </trkpt>
      <trkpt lat="43.33271" lon="2.65952">
        <ele>192.88</ele>
        <time>2017-11-27T12:56:42Z</time>
      </trkpt>
      <trkpt lat="43.33275" lon="2.65945">
        <ele>193.36</ele>
        <time>2017-11-27T12:56:49Z</time>
      </trkpt>
      <trkpt lat="43.33276" lon="2.65937">
        <ele>193.84</ele>
        <time>2017-11-27T12:57:02Z</time>
      </trkpt>
      <trkpt lat="43.33276" lon="2.65922">
        <ele>194.32</ele>
        <time>2017-11-27T12:57:15Z</time>
      </trkpt>
      <trkpt lat="43.33278" lon="2.65911">
        <ele>194.8</ele>
        <time>2017-11-27T12:57:24Z</time>
      </trkpt>
      <trkpt lat="43.33278" lon="2.65908">
        <ele>195.28</ele>
        <time>2017-11-27T12:57:26Z</time>
      </trkpt>
      <trkpt lat="43.33278" lon="2.65902">
        <ele>196.25</ele>
        <time>2017-11-27T12:57:31Z</time>
      </trkpt>
      <trkpt lat="43.33275" lon="2.65883">
        <ele>197.21</ele>
        <time>2017-11-27T12:57:43Z</time>
      </trkpt>
      <trkpt lat="43.33275" lon="2.65876">
        <ele>197.69</ele>
        <time>2017-11-27T12:57:48Z</time>
      </trkpt>
      <trkpt lat="43.33275" lon="2.65868">
        <ele>197.69</ele>
        <time>2017-11-27T12:57:53Z</time>
      </trkpt>
      <trkpt lat="43.33277" lon="2.6586">
        <ele>197.69</ele>
        <time>2017-11-27T12:57:59Z</time>
      </trkpt>
      <trkpt lat="43.33279" lon="2.6585">
        <ele>198.17</ele>
        <time>2017-11-27T12:58:05Z</time>
      </trkpt>
      <trkpt lat="43.3328" lon="2.65838">
        <ele>198.17</ele>
        <time>2017-11-27T12:58:13Z</time>
      </trkpt>
      <trkpt lat="43.33279" lon="2.65834">
        <ele>198.17</ele>
        <time>2017-11-27T12:58:16Z</time>
      </trkpt>
      <trkpt lat="43.33278" lon="2.65829">
        <ele>198.17</ele>
        <time>2017-11-27T12:58:20Z</time>
      </trkpt>
      <trkpt lat="43.33275" lon="2.65815">
        <ele>197.69</ele>
        <time>2017-11-27T12:58:34Z</time>
      </trkpt>
      <trkpt lat="43.33274" lon="2.65812">
        <ele>197.21</ele>
        <time>2017-11-27T12:58:36Z</time>
      </trkpt>
      <trkpt lat="43.33272" lon="2.65805">
        <ele>197.21</ele>
        <time>2017-11-27T12:58:43Z</time>
      </trkpt>
      <trkpt lat="43.33269" lon="2.65797">
        <ele>196.25</ele>
        <time>2017-11-27T12:58:51Z</time>
      </trkpt>
      <trkpt lat="43.33261" lon="2.65789">
        <ele>196.25</ele>
        <time>2017-11-27T12:59:03Z</time>
      </trkpt>
      <trkpt lat="43.33253" lon="2.65785">
        <ele>196.25</ele>
        <time>2017-11-27T12:59:12Z</time>
      </trkpt>
      <trkpt lat="43.33244" lon="2.65782">
        <ele>195.77</ele>
        <time>2017-11-27T12:59:24Z</time>
      </trkpt>
      <trkpt lat="43.33234" lon="2.65774">
        <ele>195.28</ele>
        <time>2017-11-27T12:59:36Z</time>
      </trkpt>
      <trkpt lat="43.33227" lon="2.65769">
        <ele>194.8</ele>
        <time>2017-11-27T12:59:44Z</time>
      </trkpt>
      <trkpt lat="43.33223" lon="2.65766">
        <ele>194.8</ele>
        <time>2017-11-27T12:59:50Z</time>
      </trkpt>
      <trkpt lat="43.33217" lon="2.65763">
        <ele>194.8</ele>
        <time>2017-11-27T12:59:56Z</time>
      </trkpt>
      <trkpt lat="43.33214" lon="2.65762">
        <ele>194.8</ele>
        <time>2017-11-27T12:59:59Z</time>
      </trkpt>
      <trkpt lat="43.332" lon="2.65757">
        <ele>194.32</ele>
        <time>2017-11-27T13:00:14Z</time>
      </trkpt>
      <trkpt lat="43.33187" lon="2.65751">
        <ele>194.8</ele>
        <time>2017-11-27T13:00:28Z</time>
      </trkpt>
      <trkpt lat="43.33175" lon="2.65739">
        <ele>194.32</ele>
        <time>2017-11-27T13:00:41Z</time>
      </trkpt>
      <trkpt lat="43.33174" lon="2.65736">
        <ele>194.32</ele>
        <time>2017-11-27T13:00:43Z</time>
      </trkpt>
      <trkpt lat="43.33162" lon="2.6572">
        <ele>194.32</ele>
        <time>2017-11-27T13:00:58Z</time>
      </trkpt>
      <trkpt lat="43.3316" lon="2.65717">
        <ele>193.84</ele>
        <time>2017-11-27T13:01:02Z</time>
      </trkpt>
      <trkpt lat="43.33157" lon="2.65713">
        <ele>193.84</ele>
        <time>2017-11-27T13:01:06Z</time>
      </trkpt>
      <trkpt lat="43.33148" lon="2.65702">
        <ele>193.36</ele>
        <time>2017-11-27T13:01:18Z</time>
      </trkpt>
      <trkpt lat="43.33141" lon="2.65692">
        <ele>192.88</ele>
        <time>2017-11-27T13:01:27Z</time>
      </trkpt>
      <trkpt lat="43.33138" lon="2.6569">
        <ele>193.36</ele>
        <time>2017-11-27T13:01:30Z</time>
      </trkpt>
      <trkpt lat="43.33134" lon="2.65684">
        <ele>193.36</ele>
        <time>2017-11-27T13:01:36Z</time>
      </trkpt>
      <trkpt lat="43.3312" lon="2.65673">
        <ele>191.44</ele>
        <time>2017-11-27T13:01:50Z</time>
      </trkpt>
      <trkpt lat="43.33111" lon="2.65662">
        <ele>190.96</ele>
        <time>2017-11-27T13:02:04Z</time>
      </trkpt>
      <trkpt lat="43.33106" lon="2.65655">
        <ele>190.96</ele>
        <time>2017-11-27T13:02:11Z</time>
      </trkpt>
      <trkpt lat="43.33092" lon="2.65638">
        <ele>190.48</ele>
        <time>2017-11-27T13:02:28Z</time>
      </trkpt>
      <trkpt lat="43.33081" lon="2.65624">
        <ele>189.52</ele>
        <time>2017-11-27T13:02:42Z</time>
      </trkpt>
      <trkpt lat="43.33075" lon="2.65615">
        <ele>189.04</ele>
        <time>2017-11-27T13:02:51Z</time>
      </trkpt>
      <trkpt lat="43.33061" lon="2.65598">
        <ele>189.04</ele>
        <time>2017-11-27T13:03:07Z</time>
      </trkpt>
      <trkpt lat="43.33058" lon="2.65595">
        <ele>189.04</ele>
        <time>2017-11-27T13:03:11Z</time>
      </trkpt>
      <trkpt lat="43.33053" lon="2.65588">
        <ele>188.56</ele>
        <time>2017-11-27T13:03:18Z</time>
      </trkpt>
      <trkpt lat="43.33039" lon="2.6557">
        <ele>188.08</ele>
        <time>2017-11-27T13:03:32Z</time>
      </trkpt>
      <trkpt lat="43.33027" lon="2.65557">
        <ele>187.59</ele>
        <time>2017-11-27T13:03:45Z</time>
      </trkpt>
      <trkpt lat="43.33016" lon="2.65539">
        <ele>187.11</ele>
        <time>2017-11-27T13:04:00Z</time>
      </trkpt>
      <trkpt lat="43.33014" lon="2.65536">
        <ele>187.59</ele>
        <time>2017-11-27T13:04:04Z</time>
      </trkpt>
      <trkpt lat="43.33012" lon="2.65532">
        <ele>187.11</ele>
        <time>2017-11-27T13:04:07Z</time>
      </trkpt>
      <trkpt lat="43.33005" lon="2.6552">
        <ele>186.63</ele>
        <time>2017-11-27T13:04:19Z</time>
      </trkpt>
      <trkpt lat="43.33004" lon="2.65519">
        <ele>187.11</ele>
        <time>2017-11-27T13:04:20Z</time>
      </trkpt>
      <trkpt lat="43.33" lon="2.65512">
        <ele>187.11</ele>
        <time>2017-11-27T13:04:27Z</time>
      </trkpt>
      <trkpt lat="43.32998" lon="2.65509">
        <ele>186.63</ele>
        <time>2017-11-27T13:04:30Z</time>
      </trkpt>
      <trkpt lat="43.32989" lon="2.65495">
        <ele>187.11</ele>
        <time>2017-11-27T13:04:43Z</time>
      </trkpt>
      <trkpt lat="43.32985" lon="2.65492">
        <ele>187.11</ele>
        <time>2017-11-27T13:04:47Z</time>
      </trkpt>
      <trkpt lat="43.32974" lon="2.65476">
        <ele>187.11</ele>
        <time>2017-11-27T13:05:02Z</time>
      </trkpt>
      <trkpt lat="43.3297" lon="2.65465">
        <ele>186.63</ele>
        <time>2017-11-27T13:05:14Z</time>
      </trkpt>
      <trkpt lat="43.32972" lon="2.65465">
        <ele>187.11</ele>
        <time>2017-11-27T13:05:16Z</time>
      </trkpt>
      <trkpt lat="43.32993" lon="2.65467">
        <ele>188.56</ele>
        <time>2017-11-27T13:05:35Z</time>
      </trkpt>
      <trkpt lat="43.33011" lon="2.65471">
        <ele>190.48</ele>
        <time>2017-11-27T13:05:50Z</time>
      </trkpt>
      <trkpt lat="43.33019" lon="2.65472">
        <ele>190.48</ele>
        <time>2017-11-27T13:05:57Z</time>
      </trkpt>
      <trkpt lat="43.33035" lon="2.65471">
        <ele>191.92</ele>
        <time>2017-11-27T13:06:11Z</time>
      </trkpt>
      <trkpt lat="43.33053" lon="2.65469">
        <ele>193.36</ele>
        <time>2017-11-27T13:06:27Z</time>
      </trkpt>
      <trkpt lat="43.33059" lon="2.65467">
        <ele>193.84</ele>
        <time>2017-11-27T13:06:33Z</time>
      </trkpt>
      <trkpt lat="43.3307" lon="2.65464">
        <ele>195.28</ele>
        <time>2017-11-27T13:06:43Z</time>
      </trkpt>
      <trkpt lat="43.33087" lon="2.65462">
        <ele>196.25</ele>
        <time>2017-11-27T13:06:59Z</time>
      </trkpt>
      <trkpt lat="43.33102" lon="2.6546">
        <ele>198.65</ele>
        <time>2017-11-27T13:07:13Z</time>
      </trkpt>
      <trkpt lat="43.33109" lon="2.65459">
        <ele>198.17</ele>
        <time>2017-11-27T13:07:25Z</time>
      </trkpt>
      <trkpt lat="43.3312" lon="2.65457">
        <ele>198.65</ele>
        <time>2017-11-27T13:07:40Z</time>
      </trkpt>
      <trkpt lat="43.33123" lon="2.65457">
        <ele>199.13</ele>
        <time>2017-11-27T13:07:45Z</time>
      </trkpt>
      <trkpt lat="43.33129" lon="2.65456">
        <ele>199.13</ele>
        <time>2017-11-27T13:07:59Z</time>
      </trkpt>
      <trkpt lat="43.33132" lon="2.65456">
        <ele>199.61</ele>
        <time>2017-11-27T13:08:15Z</time>
      </trkpt>
      <trkpt lat="43.3314" lon="2.65455">
        <ele>199.61</ele>
        <time>2017-11-27T13:08:25Z</time>
      </trkpt>
      <trkpt lat="43.33149" lon="2.65456">
        <ele>200.09</ele>
        <time>2017-11-27T13:08:37Z</time>
      </trkpt>
      <trkpt lat="43.33157" lon="2.65458">
        <ele>200.57</ele>
        <time>2017-11-27T13:08:49Z</time>
      </trkpt>
      <trkpt lat="43.33164" lon="2.65458">
        <ele>201.53</ele>
        <time>2017-11-27T13:09:00Z</time>
      </trkpt>
      <trkpt lat="43.33173" lon="2.65462">
        <ele>202.01</ele>
        <time>2017-11-27T13:09:11Z</time>
      </trkpt>
      <trkpt lat="43.33183" lon="2.65466">
        <ele>202.49</ele>
        <time>2017-11-27T13:09:25Z</time>
      </trkpt>
      <trkpt lat="43.3319" lon="2.65471">
        <ele>202.98</ele>
        <time>2017-11-27T13:09:34Z</time>
      </trkpt>
      <trkpt lat="43.33197" lon="2.65473">
        <ele>202.98</ele>
        <time>2017-11-27T13:09:46Z</time>
      </trkpt>
      <trkpt lat="43.33205" lon="2.65481">
        <ele>203.94</ele>
        <time>2017-11-27T13:10:00Z</time>
      </trkpt>
      <trkpt lat="43.33214" lon="2.65492">
        <ele>205.38</ele>
        <time>2017-11-27T13:10:13Z</time>
      </trkpt>
      <trkpt lat="43.3322" lon="2.65499">
        <ele>205.86</ele>
        <time>2017-11-27T13:10:21Z</time>
      </trkpt>
      <trkpt lat="43.33231" lon="2.65507">
        <ele>207.3</ele>
        <time>2017-11-27T13:10:34Z</time>
      </trkpt>
      <trkpt lat="43.33234" lon="2.65509">
        <ele>207.78</ele>
        <time>2017-11-27T13:10:37Z</time>
      </trkpt>
      <trkpt lat="43.33236" lon="2.65509">
        <ele>208.26</ele>
        <time>2017-11-27T13:10:39Z</time>
      </trkpt>
      <trkpt lat="43.33248" lon="2.65514">
        <ele>209.7</ele>
        <time>2017-11-27T13:10:53Z</time>
      </trkpt>
      <trkpt lat="43.33259" lon="2.65515">
        <ele>211.63</ele>
        <time>2017-11-27T13:11:05Z</time>
      </trkpt>
      <trkpt lat="43.33271" lon="2.65519">
        <ele>213.07</ele>
        <time>2017-11-27T13:11:18Z</time>
      </trkpt>
      <trkpt lat="43.33278" lon="2.65519">
        <ele>213.55</ele>
        <time>2017-11-27T13:11:30Z</time>
      </trkpt>
      <trkpt lat="43.33279" lon="2.65519">
        <ele>213.07</ele>
        <time>2017-11-27T13:11:45Z</time>
      </trkpt>
      <trkpt lat="43.33285" lon="2.65521">
        <ele>214.03</ele>
        <time>2017-11-27T13:12:05Z</time>
      </trkpt>
      <trkpt lat="43.33286" lon="2.65521">
        <ele>214.51</ele>
        <time>2017-11-27T13:12:06Z</time>
      </trkpt>
      <trkpt lat="43.33294" lon="2.65523">
        <ele>214.51</ele>
        <time>2017-11-27T13:12:14Z</time>
      </trkpt>
      <trkpt lat="43.33302" lon="2.65523">
        <ele>216.43</ele>
        <time>2017-11-27T13:12:26Z</time>
      </trkpt>
      <trkpt lat="43.33311" lon="2.65522">
        <ele>217.88</ele>
        <time>2017-11-27T13:12:38Z</time>
      </trkpt>
      <trkpt lat="43.33323" lon="2.6552">
        <ele>220.28</ele>
        <time>2017-11-27T13:12:52Z</time>
      </trkpt>
      <trkpt lat="43.3333" lon="2.65518">
        <ele>221.24</ele>
        <time>2017-11-27T13:13:05Z</time>
      </trkpt>
      <trkpt lat="43.33335" lon="2.65517">
        <ele>222.2</ele>
        <time>2017-11-27T13:13:20Z</time>
      </trkpt>
      <trkpt lat="43.33335" lon="2.65516">
        <ele>222.2</ele>
        <time>2017-11-27T13:13:32Z</time>
      </trkpt>
      <trkpt lat="43.33339" lon="2.65515">
        <ele>222.68</ele>
        <time>2017-11-27T13:13:45Z</time>
      </trkpt>
      <trkpt lat="43.33341" lon="2.65515">
        <ele>222.68</ele>
        <time>2017-11-27T13:13:56Z</time>
      </trkpt>
      <trkpt lat="43.33342" lon="2.65513">
        <ele>223.64</ele>
        <time>2017-11-27T13:14:08Z</time>
      </trkpt>
      <trkpt lat="43.33346" lon="2.65513">
        <ele>223.64</ele>
        <time>2017-11-27T13:14:22Z</time>
      </trkpt>
      <trkpt lat="43.33347" lon="2.65513">
        <ele>223.64</ele>
        <time>2017-11-27T13:14:29Z</time>
      </trkpt>
      <trkpt lat="43.33351" lon="2.65511">
        <ele>224.12</ele>
        <time>2017-11-27T13:14:39Z</time>
      </trkpt>
      <trkpt lat="43.33356" lon="2.6551">
        <ele>225.09</ele>
        <time>2017-11-27T13:14:44Z</time>
      </trkpt>
      <trkpt lat="43.33362" lon="2.6551">
        <ele>226.05</ele>
        <time>2017-11-27T13:14:51Z</time>
      </trkpt>
      <trkpt lat="43.33375" lon="2.65505">
        <ele>227.49</ele>
        <time>2017-11-27T13:15:06Z</time>
      </trkpt>
      <trkpt lat="43.33388" lon="2.65503">
        <ele>229.41</ele>
        <time>2017-11-27T13:15:21Z</time>
      </trkpt>
      <trkpt lat="43.33402" lon="2.65501">
        <ele>230.37</ele>
        <time>2017-11-27T13:15:34Z</time>
      </trkpt>
      <trkpt lat="43.33411" lon="2.65502">
        <ele>232.3</ele>
        <time>2017-11-27T13:15:48Z</time>
      </trkpt>
      <trkpt lat="43.33411" lon="2.65502">
        <ele>232.3</ele>
        <time>2017-11-27T13:15:50Z</time>
      </trkpt>
      <trkpt lat="43.33413" lon="2.65503">
        <ele>232.78</ele>
        <time>2017-11-27T13:15:52Z</time>
      </trkpt>
      <trkpt lat="43.33419" lon="2.65505">
        <ele>232.78</ele>
        <time>2017-11-27T13:16:03Z</time>
      </trkpt>
      <trkpt lat="43.33427" lon="2.6551">
        <ele>233.74</ele>
        <time>2017-11-27T13:16:20Z</time>
      </trkpt>
      <trkpt lat="43.33431" lon="2.65513">
        <ele>234.22</ele>
        <time>2017-11-27T13:16:31Z</time>
      </trkpt>
      <trkpt lat="43.33433" lon="2.65515">
        <ele>234.7</ele>
        <time>2017-11-27T13:16:35Z</time>
      </trkpt>
      <trkpt lat="43.33441" lon="2.65514">
        <ele>236.14</ele>
        <time>2017-11-27T13:16:47Z</time>
      </trkpt>
      <trkpt lat="43.33444" lon="2.65512">
        <ele>236.62</ele>
        <time>2017-11-27T13:16:50Z</time>
      </trkpt>
      <trkpt lat="43.33445" lon="2.65509">
        <ele>237.1</ele>
        <time>2017-11-27T13:17:01Z</time>
      </trkpt>
      <trkpt lat="43.33446" lon="2.65509">
        <ele>237.1</ele>
        <time>2017-11-27T13:17:14Z</time>
      </trkpt>
      <trkpt lat="43.33446" lon="2.65509">
        <ele>237.1</ele>
        <time>2017-11-27T13:17:33Z</time>
      </trkpt>
      <trkpt lat="43.33446" lon="2.65508">
        <ele>237.58</ele>
        <time>2017-11-27T13:17:53Z</time>
      </trkpt>
      <trkpt lat="43.33446" lon="2.65508">
        <ele>237.58</ele>
        <time>2017-11-27T13:18:13Z</time>
      </trkpt>
      <trkpt lat="43.33448" lon="2.65502">
        <ele>237.58</ele>
        <time>2017-11-27T13:18:25Z</time>
      </trkpt>
      <trkpt lat="43.33452" lon="2.65494">
        <ele>238.54</ele>
        <time>2017-11-27T13:18:34Z</time>
      </trkpt>
      <trkpt lat="43.33456" lon="2.65486">
        <ele>239.02</ele>
        <time>2017-11-27T13:18:46Z</time>
      </trkpt>
      <trkpt lat="43.33456" lon="2.65485">
        <ele>238.54</ele>
        <time>2017-11-27T13:18:56Z</time>
      </trkpt>
      <trkpt lat="43.33459" lon="2.65476">
        <ele>239.51</ele>
        <time>2017-11-27T13:19:07Z</time>
      </trkpt>
      <trkpt lat="43.33465" lon="2.65463">
        <ele>240.47</ele>
        <time>2017-11-27T13:19:18Z</time>
      </trkpt>
      <trkpt lat="43.33468" lon="2.65456">
        <ele>241.43</ele>
        <time>2017-11-27T13:19:28Z</time>
      </trkpt>
      <trkpt lat="43.33473" lon="2.65446">
        <ele>241.91</ele>
        <time>2017-11-27T13:19:39Z</time>
      </trkpt>
      <trkpt lat="43.33474" lon="2.65445">
        <ele>241.91</ele>
        <time>2017-11-27T13:19:40Z</time>
      </trkpt>
      <trkpt lat="43.33477" lon="2.65437">
        <ele>241.91</ele>
        <time>2017-11-27T13:19:46Z</time>
      </trkpt>
      <trkpt lat="43.33482" lon="2.65425">
        <ele>242.87</ele>
        <time>2017-11-27T13:19:59Z</time>
      </trkpt>
      <trkpt lat="43.33483" lon="2.65422">
        <ele>243.35</ele>
        <time>2017-11-27T13:20:10Z</time>
      </trkpt>
      <trkpt lat="43.33485" lon="2.65414">
        <ele>243.35</ele>
        <time>2017-11-27T13:20:22Z</time>
      </trkpt>
      <trkpt lat="43.33487" lon="2.65409">
        <ele>244.79</ele>
        <time>2017-11-27T13:20:33Z</time>
      </trkpt>
      <trkpt lat="43.33488" lon="2.65404">
        <ele>244.79</ele>
        <time>2017-11-27T13:20:54Z</time>
      </trkpt>
      <trkpt lat="43.33489" lon="2.65403">
        <ele>244.79</ele>
        <time>2017-11-27T13:20:55Z</time>
      </trkpt>
      <trkpt lat="43.33492" lon="2.65397">
        <ele>245.27</ele>
        <time>2017-11-27T13:21:01Z</time>
      </trkpt>
      <trkpt lat="43.33495" lon="2.6538">
        <ele>245.75</ele>
        <time>2017-11-27T13:21:15Z</time>
      </trkpt>
      <trkpt lat="43.33494" lon="2.65377">
        <ele>245.75</ele>
        <time>2017-11-27T13:21:29Z</time>
      </trkpt>
      <trkpt lat="43.33494" lon="2.65373">
        <ele>246.72</ele>
        <time>2017-11-27T13:21:32Z</time>
      </trkpt>
      <trkpt lat="43.33495" lon="2.65366">
        <ele>246.72</ele>
        <time>2017-11-27T13:21:39Z</time>
      </trkpt>
      <trkpt lat="43.33495" lon="2.6534">
        <ele>246.72</ele>
        <time>2017-11-27T13:21:54Z</time>
      </trkpt>
      <trkpt lat="43.33495" lon="2.65327">
        <ele>247.2</ele>
        <time>2017-11-27T13:22:03Z</time>
      </trkpt>
      <trkpt lat="43.33504" lon="2.65315">
        <ele>247.68</ele>
        <time>2017-11-27T13:22:15Z</time>
      </trkpt>
      <trkpt lat="43.33508" lon="2.6531">
        <ele>248.16</ele>
        <time>2017-11-27T13:22:20Z</time>
      </trkpt>
      <trkpt lat="43.33516" lon="2.65305">
        <ele>248.64</ele>
        <time>2017-11-27T13:22:29Z</time>
      </trkpt>
      <trkpt lat="43.33518" lon="2.65304">
        <ele>248.64</ele>
        <time>2017-11-27T13:22:31Z</time>
      </trkpt>
      <trkpt lat="43.3353" lon="2.65296">
        <ele>250.08</ele>
        <time>2017-11-27T13:22:44Z</time>
      </trkpt>
      <trkpt lat="43.33537" lon="2.65291">
        <ele>250.56</ele>
        <time>2017-11-27T13:22:57Z</time>
      </trkpt>
      <trkpt lat="43.33542" lon="2.65289">
        <ele>251.52</ele>
        <time>2017-11-27T13:23:12Z</time>
      </trkpt>
      <trkpt lat="43.33546" lon="2.65287">
        <ele>252</ele>
        <time>2017-11-27T13:23:17Z</time>
      </trkpt>
      <trkpt lat="43.33551" lon="2.65281">
        <ele>252.96</ele>
        <time>2017-11-27T13:23:31Z</time>
      </trkpt>
      <trkpt lat="43.33555" lon="2.65278">
        <ele>253.44</ele>
        <time>2017-11-27T13:23:37Z</time>
      </trkpt>
      <trkpt lat="43.33561" lon="2.65268">
        <ele>254.89</ele>
        <time>2017-11-27T13:23:49Z</time>
      </trkpt>
      <trkpt lat="43.33562" lon="2.65266">
        <ele>254.89</ele>
        <time>2017-11-27T13:23:52Z</time>
      </trkpt>
      <trkpt lat="43.33564" lon="2.65254">
        <ele>256.81</ele>
        <time>2017-11-27T13:24:05Z</time>
      </trkpt>
      <trkpt lat="43.33565" lon="2.65248">
        <ele>257.77</ele>
        <time>2017-11-27T13:24:11Z</time>
      </trkpt>
      <trkpt lat="43.33569" lon="2.65233">
        <ele>258.73</ele>
        <time>2017-11-27T13:24:23Z</time>
      </trkpt>
      <trkpt lat="43.33572" lon="2.65221">
        <ele>260.17</ele>
        <time>2017-11-27T13:24:36Z</time>
      </trkpt>
      <trkpt lat="43.33572" lon="2.65219">
        <ele>260.65</ele>
        <time>2017-11-27T13:24:38Z</time>
      </trkpt>
      <trkpt lat="43.33574" lon="2.65206">
        <ele>261.62</ele>
        <time>2017-11-27T13:24:51Z</time>
      </trkpt>
      <trkpt lat="43.33575" lon="2.65204">
        <ele>262.1</ele>
        <time>2017-11-27T13:24:56Z</time>
      </trkpt>
      <trkpt lat="43.33576" lon="2.65192">
        <ele>263.54</ele>
        <time>2017-11-27T13:25:08Z</time>
      </trkpt>
      <trkpt lat="43.33579" lon="2.65184">
        <ele>264.98</ele>
        <time>2017-11-27T13:25:19Z</time>
      </trkpt>
      <trkpt lat="43.33581" lon="2.65171">
        <ele>266.42</ele>
        <time>2017-11-27T13:25:30Z</time>
      </trkpt>
      <trkpt lat="43.33584" lon="2.65154">
        <ele>267.38</ele>
        <time>2017-11-27T13:25:44Z</time>
      </trkpt>
      <trkpt lat="43.33585" lon="2.65151">
        <ele>267.38</ele>
        <time>2017-11-27T13:25:46Z</time>
      </trkpt>
      <trkpt lat="43.33587" lon="2.65147">
        <ele>267.86</ele>
        <time>2017-11-27T13:25:49Z</time>
      </trkpt>
      <trkpt lat="43.3359" lon="2.65129">
        <ele>268.83</ele>
        <time>2017-11-27T13:26:03Z</time>
      </trkpt>
      <trkpt lat="43.33592" lon="2.65112">
        <ele>269.79</ele>
        <time>2017-11-27T13:26:16Z</time>
      </trkpt>
      <trkpt lat="43.33593" lon="2.6511">
        <ele>269.79</ele>
        <time>2017-11-27T13:26:18Z</time>
      </trkpt>
      <trkpt lat="43.33593" lon="2.65105">
        <ele>270.27</ele>
        <time>2017-11-27T13:26:22Z</time>
      </trkpt>
      <trkpt lat="43.33596" lon="2.6509">
        <ele>271.23</ele>
        <time>2017-11-27T13:26:35Z</time>
      </trkpt>
      <trkpt lat="43.33597" lon="2.65086">
        <ele>271.71</ele>
        <time>2017-11-27T13:26:39Z</time>
      </trkpt>
      <trkpt lat="43.33599" lon="2.65069">
        <ele>272.19</ele>
        <time>2017-11-27T13:26:52Z</time>
      </trkpt>
      <trkpt lat="43.33601" lon="2.65048">
        <ele>273.15</ele>
        <time>2017-11-27T13:27:08Z</time>
      </trkpt>
      <trkpt lat="43.33603" lon="2.65039">
        <ele>274.11</ele>
        <time>2017-11-27T13:27:16Z</time>
      </trkpt>
      <trkpt lat="43.33604" lon="2.65027">
        <ele>275.07</ele>
        <time>2017-11-27T13:27:29Z</time>
      </trkpt>
      <trkpt lat="43.33607" lon="2.65007">
        <ele>276.52</ele>
        <time>2017-11-27T13:27:44Z</time>
      </trkpt>
      <trkpt lat="43.33609" lon="2.64989">
        <ele>277.48</ele>
        <time>2017-11-27T13:27:58Z</time>
      </trkpt>
      <trkpt lat="43.33614" lon="2.64971">
        <ele>278.44</ele>
        <time>2017-11-27T13:28:11Z</time>
      </trkpt>
      <trkpt lat="43.33614" lon="2.64951">
        <ele>279.4</ele>
        <time>2017-11-27T13:28:27Z</time>
      </trkpt>
      <trkpt lat="43.33615" lon="2.64935">
        <ele>280.36</ele>
        <time>2017-11-27T13:28:39Z</time>
      </trkpt>
      <trkpt lat="43.33617" lon="2.64925">
        <ele>281.32</ele>
        <time>2017-11-27T13:28:46Z</time>
      </trkpt>
      <trkpt lat="43.33618" lon="2.64917">
        <ele>281.32</ele>
        <time>2017-11-27T13:28:57Z</time>
      </trkpt>
      <trkpt lat="43.3362" lon="2.64909">
        <ele>282.28</ele>
        <time>2017-11-27T13:29:08Z</time>
      </trkpt>
      <trkpt lat="43.33619" lon="2.64906">
        <ele>281.8</ele>
        <time>2017-11-27T13:29:18Z</time>
      </trkpt>
      <trkpt lat="43.3362" lon="2.64902">
        <ele>282.28</ele>
        <time>2017-11-27T13:29:36Z</time>
      </trkpt>
      <trkpt lat="43.33622" lon="2.64905">
        <ele>282.28</ele>
        <time>2017-11-27T13:29:42Z</time>
      </trkpt>
      <trkpt lat="43.33628" lon="2.64903">
        <ele>284.21</ele>
        <time>2017-11-27T13:29:53Z</time>
      </trkpt>
      <trkpt lat="43.33628" lon="2.64904">
        <ele>284.21</ele>
        <time>2017-11-27T13:30:16Z</time>
      </trkpt>
      <trkpt lat="43.33625" lon="2.64901">
        <ele>282.77</ele>
        <time>2017-11-27T13:30:34Z</time>
      </trkpt>
      <trkpt lat="43.33626" lon="2.64899">
        <ele>282.77</ele>
        <time>2017-11-27T13:30:48Z</time>
      </trkpt>
      <trkpt lat="43.33626" lon="2.64897">
        <ele>282.77</ele>
        <time>2017-11-27T13:31:01Z</time>
      </trkpt>
      <trkpt lat="43.33626" lon="2.64896">
        <ele>282.77</ele>
        <time>2017-11-27T13:31:02Z</time>
      </trkpt>
      <trkpt lat="43.3363" lon="2.64888">
        <ele>283.25</ele>
        <time>2017-11-27T13:31:09Z</time>
      </trkpt>
      <trkpt lat="43.33635" lon="2.64876">
        <ele>284.21</ele>
        <time>2017-11-27T13:31:19Z</time>
      </trkpt>
      <trkpt lat="43.33637" lon="2.64869">
        <ele>285.17</ele>
        <time>2017-11-27T13:31:24Z</time>
      </trkpt>
      <trkpt lat="43.33644" lon="2.64851">
        <ele>286.61</ele>
        <time>2017-11-27T13:31:38Z</time>
      </trkpt>
      <trkpt lat="43.33651" lon="2.64834">
        <ele>287.09</ele>
        <time>2017-11-27T13:31:50Z</time>
      </trkpt>
      <trkpt lat="43.33656" lon="2.64822">
        <ele>288.53</ele>
        <time>2017-11-27T13:31:59Z</time>
      </trkpt>
      <trkpt lat="43.33659" lon="2.64813">
        <ele>289.49</ele>
        <time>2017-11-27T13:32:05Z</time>
      </trkpt>
      <trkpt lat="43.33662" lon="2.64807">
        <ele>289.49</ele>
        <time>2017-11-27T13:32:10Z</time>
      </trkpt>
      <trkpt lat="43.33667" lon="2.64798">
        <ele>290.46</ele>
        <time>2017-11-27T13:32:17Z</time>
      </trkpt>
      <trkpt lat="43.33673" lon="2.64781">
        <ele>291.9</ele>
        <time>2017-11-27T13:32:30Z</time>
      </trkpt>
      <trkpt lat="43.33675" lon="2.64776">
        <ele>291.9</ele>
        <time>2017-11-27T13:32:41Z</time>
      </trkpt>
      <trkpt lat="43.33675" lon="2.64775">
        <ele>291.42</ele>
        <time>2017-11-27T13:32:55Z</time>
      </trkpt>
      <trkpt lat="43.33677" lon="2.64771">
        <ele>292.38</ele>
        <time>2017-11-27T13:32:58Z</time>
      </trkpt>
      <trkpt lat="43.33679" lon="2.64752">
        <ele>292.86</ele>
        <time>2017-11-27T13:33:11Z</time>
      </trkpt>
      <trkpt lat="43.33678" lon="2.64735">
        <ele>293.82</ele>
        <time>2017-11-27T13:33:23Z</time>
      </trkpt>
      <trkpt lat="43.33678" lon="2.64733">
        <ele>293.82</ele>
        <time>2017-11-27T13:33:24Z</time>
      </trkpt>
      <trkpt lat="43.33678" lon="2.64726">
        <ele>294.3</ele>
        <time>2017-11-27T13:33:29Z</time>
      </trkpt>
      <trkpt lat="43.3368" lon="2.64712">
        <ele>294.78</ele>
        <time>2017-11-27T13:33:39Z</time>
      </trkpt>
      <trkpt lat="43.3368" lon="2.64709">
        <ele>294.78</ele>
        <time>2017-11-27T13:33:41Z</time>
      </trkpt>
      <trkpt lat="43.33682" lon="2.64698">
        <ele>295.74</ele>
        <time>2017-11-27T13:33:49Z</time>
      </trkpt>
      <trkpt lat="43.33688" lon="2.64679">
        <ele>297.18</ele>
        <time>2017-11-27T13:34:02Z</time>
      </trkpt>
      <trkpt lat="43.33696" lon="2.64662">
        <ele>298.15</ele>
        <time>2017-11-27T13:34:16Z</time>
      </trkpt>
      <trkpt lat="43.33699" lon="2.64658">
        <ele>298.63</ele>
        <time>2017-11-27T13:34:20Z</time>
      </trkpt>
      <trkpt lat="43.337" lon="2.64656">
        <ele>298.63</ele>
        <time>2017-11-27T13:34:22Z</time>
      </trkpt>
      <trkpt lat="43.33709" lon="2.6464">
        <ele>299.11</ele>
        <time>2017-11-27T13:34:35Z</time>
      </trkpt>
      <trkpt lat="43.33709" lon="2.6464">
        <ele>299.59</ele>
        <time>2017-11-27T13:34:36Z</time>
      </trkpt>
      <trkpt lat="43.33716" lon="2.6463">
        <ele>299.59</ele>
        <time>2017-11-27T13:34:46Z</time>
      </trkpt>
      <trkpt lat="43.33723" lon="2.6462">
        <ele>300.55</ele>
        <time>2017-11-27T13:34:56Z</time>
      </trkpt>
      <trkpt lat="43.33728" lon="2.64612">
        <ele>301.03</ele>
        <time>2017-11-27T13:35:04Z</time>
      </trkpt>
      <trkpt lat="43.33733" lon="2.64609">
        <ele>301.99</ele>
        <time>2017-11-27T13:35:09Z</time>
      </trkpt>
      <trkpt lat="43.33737" lon="2.64608">
        <ele>301.99</ele>
        <time>2017-11-27T13:35:13Z</time>
      </trkpt>
      <trkpt lat="43.3375" lon="2.64607">
        <ele>302.95</ele>
        <time>2017-11-27T13:35:26Z</time>
      </trkpt>
      <trkpt lat="43.33756" lon="2.64608">
        <ele>303.43</ele>
        <time>2017-11-27T13:35:32Z</time>
      </trkpt>
      <trkpt lat="43.33762" lon="2.64608">
        <ele>303.91</ele>
        <time>2017-11-27T13:35:38Z</time>
      </trkpt>
      <trkpt lat="43.33765" lon="2.64607">
        <ele>303.91</ele>
        <time>2017-11-27T13:35:41Z</time>
      </trkpt>
      <trkpt lat="43.33768" lon="2.64608">
        <ele>303.91</ele>
        <time>2017-11-27T13:35:44Z</time>
      </trkpt>
      <trkpt lat="43.33771" lon="2.64607">
        <ele>304.39</ele>
        <time>2017-11-27T13:35:47Z</time>
      </trkpt>
      <trkpt lat="43.33777" lon="2.64607">
        <ele>304.88</ele>
        <time>2017-11-27T13:35:54Z</time>
      </trkpt>
      <trkpt lat="43.33784" lon="2.64607">
        <ele>304.88</ele>
        <time>2017-11-27T13:36:01Z</time>
      </trkpt>
      <trkpt lat="43.33786" lon="2.64607">
        <ele>304.88</ele>
        <time>2017-11-27T13:36:03Z</time>
      </trkpt>
      <trkpt lat="43.33796" lon="2.6461">
        <ele>306.32</ele>
        <time>2017-11-27T13:36:16Z</time>
      </trkpt>
      <trkpt lat="43.33797" lon="2.6461">
        <ele>306.32</ele>
        <time>2017-11-27T13:36:17Z</time>
      </trkpt>
      <trkpt lat="43.33805" lon="2.6461">
        <ele>306.32</ele>
        <time>2017-11-27T13:36:24Z</time>
      </trkpt>
      <trkpt lat="43.33816" lon="2.64607">
        <ele>307.28</ele>
        <time>2017-11-27T13:36:36Z</time>
      </trkpt>
      <trkpt lat="43.33823" lon="2.64604">
        <ele>307.76</ele>
        <time>2017-11-27T13:36:43Z</time>
      </trkpt>
      <trkpt lat="43.33835" lon="2.64595">
        <ele>308.72</ele>
        <time>2017-11-27T13:36:56Z</time>
      </trkpt>
      <trkpt lat="43.3384" lon="2.64589">
        <ele>308.72</ele>
        <time>2017-11-27T13:37:02Z</time>
      </trkpt>
      <trkpt lat="43.3385" lon="2.64583">
        <ele>310.16</ele>
        <time>2017-11-27T13:37:15Z</time>
      </trkpt>
      <trkpt lat="43.33854" lon="2.6458">
        <ele>310.64</ele>
        <time>2017-11-27T13:37:20Z</time>
      </trkpt>
      <trkpt lat="43.33863" lon="2.64573">
        <ele>311.12</ele>
        <time>2017-11-27T13:37:32Z</time>
      </trkpt>
      <trkpt lat="43.33865" lon="2.64572">
        <ele>311.6</ele>
        <time>2017-11-27T13:37:34Z</time>
      </trkpt>
      <trkpt lat="43.33869" lon="2.64569">
        <ele>311.6</ele>
        <time>2017-11-27T13:37:39Z</time>
      </trkpt>
      <trkpt lat="43.33872" lon="2.64566">
        <ele>312.09</ele>
        <time>2017-11-27T13:37:43Z</time>
      </trkpt>
      <trkpt lat="43.33877" lon="2.64562">
        <ele>313.05</ele>
        <time>2017-11-27T13:37:50Z</time>
      </trkpt>
      <trkpt lat="43.33887" lon="2.64558">
        <ele>314.49</ele>
        <time>2017-11-27T13:38:04Z</time>
      </trkpt>
      <trkpt lat="43.33888" lon="2.64558">
        <ele>314.97</ele>
        <time>2017-11-27T13:38:05Z</time>
      </trkpt>
      <trkpt lat="43.3389" lon="2.64567">
        <ele>315.93</ele>
        <time>2017-11-27T13:38:15Z</time>
      </trkpt>
      <trkpt lat="43.3389" lon="2.64575">
        <ele>316.41</ele>
        <time>2017-11-27T13:38:28Z</time>
      </trkpt>
      <trkpt lat="43.33887" lon="2.64581">
        <ele>315.93</ele>
        <time>2017-11-27T13:38:34Z</time>
      </trkpt>
      <trkpt lat="43.33885" lon="2.64582">
        <ele>315.45</ele>
        <time>2017-11-27T13:38:36Z</time>
      </trkpt>
      <trkpt lat="43.33881" lon="2.64585">
        <ele>315.45</ele>
        <time>2017-11-27T13:38:40Z</time>
      </trkpt>
      <trkpt lat="43.33876" lon="2.64591">
        <ele>316.41</ele>
        <time>2017-11-27T13:38:48Z</time>
      </trkpt>
      <trkpt lat="43.33876" lon="2.646">
        <ele>317.37</ele>
        <time>2017-11-27T13:38:56Z</time>
      </trkpt>
      <trkpt lat="43.33876" lon="2.64602">
        <ele>317.85</ele>
        <time>2017-11-27T13:38:59Z</time>
      </trkpt>
      <trkpt lat="43.33878" lon="2.64614">
        <ele>319.78</ele>
        <time>2017-11-27T13:39:12Z</time>
      </trkpt>
      <trkpt lat="43.33878" lon="2.64625">
        <ele>320.74</ele>
        <time>2017-11-27T13:39:24Z</time>
      </trkpt>
      <trkpt lat="43.33877" lon="2.64631">
        <ele>322.18</ele>
        <time>2017-11-27T13:39:38Z</time>
      </trkpt>
      <trkpt lat="43.33877" lon="2.64639">
        <ele>323.62</ele>
        <time>2017-11-27T13:39:47Z</time>
      </trkpt>
      <trkpt lat="43.33878" lon="2.64646">
        <ele>325.54</ele>
        <time>2017-11-27T13:39:57Z</time>
      </trkpt>
      <trkpt lat="43.33882" lon="2.64649">
        <ele>326.02</ele>
        <time>2017-11-27T13:40:02Z</time>
      </trkpt>
      <trkpt lat="43.33887" lon="2.64648">
        <ele>326.5</ele>
        <time>2017-11-27T13:40:08Z</time>
      </trkpt>
      <trkpt lat="43.33889" lon="2.64647">
        <ele>326.5</ele>
        <time>2017-11-27T13:40:12Z</time>
      </trkpt>
      <trkpt lat="43.33895" lon="2.64647">
        <ele>327.95</ele>
        <time>2017-11-27T13:40:26Z</time>
      </trkpt>
      <trkpt lat="43.33897" lon="2.64653">
        <ele>328.91</ele>
        <time>2017-11-27T13:40:32Z</time>
      </trkpt>
      <trkpt lat="43.33901" lon="2.64662">
        <ele>330.35</ele>
        <time>2017-11-27T13:40:45Z</time>
      </trkpt>
      <trkpt lat="43.33901" lon="2.64663">
        <ele>329.87</ele>
        <time>2017-11-27T13:41:03Z</time>
      </trkpt>
      <trkpt lat="43.33902" lon="2.64663">
        <ele>329.39</ele>
        <time>2017-11-27T13:41:13Z</time>
      </trkpt>
      <trkpt lat="43.33901" lon="2.64673">
        <ele>329.39</ele>
        <time>2017-11-27T13:41:23Z</time>
      </trkpt>
      <trkpt lat="43.33901" lon="2.64676">
        <ele>329.87</ele>
        <time>2017-11-27T13:41:32Z</time>
      </trkpt>
      <trkpt lat="43.33901" lon="2.64675">
        <ele>329.87</ele>
        <time>2017-11-27T13:41:48Z</time>
      </trkpt>
      <trkpt lat="43.33902" lon="2.64675">
        <ele>329.87</ele>
        <time>2017-11-27T13:42:03Z</time>
      </trkpt>
      <trkpt lat="43.33909" lon="2.64675">
        <ele>329.39</ele>
        <time>2017-11-27T13:42:14Z</time>
      </trkpt>
      <trkpt lat="43.33914" lon="2.64676">
        <ele>328.91</ele>
        <time>2017-11-27T13:42:18Z</time>
      </trkpt>
      <trkpt lat="43.33923" lon="2.64676">
        <ele>329.39</ele>
        <time>2017-11-27T13:42:30Z</time>
      </trkpt>
      <trkpt lat="43.3393" lon="2.64675">
        <ele>330.83</ele>
        <time>2017-11-27T13:42:43Z</time>
      </trkpt>
      <trkpt lat="43.3393" lon="2.64675">
        <ele>331.31</ele>
        <time>2017-11-27T13:42:49Z</time>
      </trkpt>
      <trkpt lat="43.33937" lon="2.64669">
        <ele>333.23</ele>
        <time>2017-11-27T13:43:00Z</time>
      </trkpt>
      <trkpt lat="43.33941" lon="2.64663">
        <ele>334.2</ele>
        <time>2017-11-27T13:43:12Z</time>
      </trkpt>
      <trkpt lat="43.33944" lon="2.64659">
        <ele>334.68</ele>
        <time>2017-11-27T13:43:18Z</time>
      </trkpt>
      <trkpt lat="43.33946" lon="2.64655">
        <ele>335.64</ele>
        <time>2017-11-27T13:43:22Z</time>
      </trkpt>
      <trkpt lat="43.33948" lon="2.64653">
        <ele>335.16</ele>
        <time>2017-11-27T13:43:24Z</time>
      </trkpt>
      <trkpt lat="43.33953" lon="2.6464">
        <ele>336.6</ele>
        <time>2017-11-27T13:43:35Z</time>
      </trkpt>
      <trkpt lat="43.33955" lon="2.64634">
        <ele>337.56</ele>
        <time>2017-11-27T13:43:42Z</time>
      </trkpt>
      <trkpt lat="43.33964" lon="2.64626">
        <ele>337.08</ele>
        <time>2017-11-27T13:43:55Z</time>
      </trkpt>
      <trkpt lat="43.33965" lon="2.64626">
        <ele>337.08</ele>
        <time>2017-11-27T13:43:56Z</time>
      </trkpt>
      <trkpt lat="43.33977" lon="2.64624">
        <ele>337.56</ele>
        <time>2017-11-27T13:44:09Z</time>
      </trkpt>
      <trkpt lat="43.3398" lon="2.64614">
        <ele>338.04</ele>
        <time>2017-11-27T13:44:20Z</time>
      </trkpt>
      <trkpt lat="43.33985" lon="2.64602">
        <ele>339</ele>
        <time>2017-11-27T13:44:32Z</time>
      </trkpt>
      <trkpt lat="43.3399" lon="2.64587">
        <ele>338.52</ele>
        <time>2017-11-27T13:44:46Z</time>
      </trkpt>
      <trkpt lat="43.33993" lon="2.64576">
        <ele>338.52</ele>
        <time>2017-11-27T13:44:57Z</time>
      </trkpt>
      <trkpt lat="43.33993" lon="2.64575">
        <ele>339</ele>
        <time>2017-11-27T13:44:58Z</time>
      </trkpt>
      <trkpt lat="43.33998" lon="2.64562">
        <ele>339.48</ele>
        <time>2017-11-27T13:45:10Z</time>
      </trkpt>
      <trkpt lat="43.34" lon="2.64558">
        <ele>339.96</ele>
        <time>2017-11-27T13:45:14Z</time>
      </trkpt>
      <trkpt lat="43.34" lon="2.64554">
        <ele>339.48</ele>
        <time>2017-11-27T13:45:17Z</time>
      </trkpt>
      <trkpt lat="43.34003" lon="2.6453">
        <ele>338.52</ele>
        <time>2017-11-27T13:45:32Z</time>
      </trkpt>
      <trkpt lat="43.34005" lon="2.64515">
        <ele>339</ele>
        <time>2017-11-27T13:45:43Z</time>
      </trkpt>
      <trkpt lat="43.34007" lon="2.64504">
        <ele>338.52</ele>
        <time>2017-11-27T13:45:56Z</time>
      </trkpt>
      <trkpt lat="43.34008" lon="2.64497">
        <ele>337.56</ele>
        <time>2017-11-27T13:46:09Z</time>
      </trkpt>
      <trkpt lat="43.34008" lon="2.64494">
        <ele>337.56</ele>
        <time>2017-11-27T13:46:14Z</time>
      </trkpt>
      <trkpt lat="43.34007" lon="2.64475">
        <ele>336.6</ele>
        <time>2017-11-27T13:46:28Z</time>
      </trkpt>
      <trkpt lat="43.34006" lon="2.64471">
        <ele>336.6</ele>
        <time>2017-11-27T13:46:31Z</time>
      </trkpt>
      <trkpt lat="43.34003" lon="2.64447">
        <ele>336.6</ele>
        <time>2017-11-27T13:46:45Z</time>
      </trkpt>
      <trkpt lat="43.34003" lon="2.64435">
        <ele>337.08</ele>
        <time>2017-11-27T13:46:53Z</time>
      </trkpt>
      <trkpt lat="43.34011" lon="2.64415">
        <ele>339</ele>
        <time>2017-11-27T13:47:09Z</time>
      </trkpt>
      <trkpt lat="43.34013" lon="2.64411">
        <ele>339.96</ele>
        <time>2017-11-27T13:47:13Z</time>
      </trkpt>
      <trkpt lat="43.34017" lon="2.64393">
        <ele>341.41</ele>
        <time>2017-11-27T13:47:26Z</time>
      </trkpt>
      <trkpt lat="43.34022" lon="2.64381">
        <ele>342.85</ele>
        <time>2017-11-27T13:47:38Z</time>
      </trkpt>
      <trkpt lat="43.34023" lon="2.64377">
        <ele>343.33</ele>
        <time>2017-11-27T13:47:49Z</time>
      </trkpt>
      <trkpt lat="43.34023" lon="2.64376">
        <ele>343.81</ele>
        <time>2017-11-27T13:48:02Z</time>
      </trkpt>
      <trkpt lat="43.34024" lon="2.64372">
        <ele>344.77</ele>
        <time>2017-11-27T13:48:15Z</time>
      </trkpt>
      <trkpt lat="43.34024" lon="2.64368">
        <ele>345.25</ele>
        <time>2017-11-27T13:48:25Z</time>
      </trkpt>
      <trkpt lat="43.34024" lon="2.64362">
        <ele>347.17</ele>
        <time>2017-11-27T13:48:35Z</time>
      </trkpt>
      <trkpt lat="43.34024" lon="2.64355">
        <ele>350.54</ele>
        <time>2017-11-27T13:48:48Z</time>
      </trkpt>
      <trkpt lat="43.34024" lon="2.64354">
        <ele>351.02</ele>
        <time>2017-11-27T13:48:49Z</time>
      </trkpt>
      <trkpt lat="43.34026" lon="2.64343">
        <ele>353.42</ele>
        <time>2017-11-27T13:49:00Z</time>
      </trkpt>
      <trkpt lat="43.34027" lon="2.64336">
        <ele>354.86</ele>
        <time>2017-11-27T13:49:11Z</time>
      </trkpt>
      <trkpt lat="43.34029" lon="2.64327">
        <ele>356.79</ele>
        <time>2017-11-27T13:49:23Z</time>
      </trkpt>
      <trkpt lat="43.3403" lon="2.64321">
        <ele>357.75</ele>
        <time>2017-11-27T13:49:34Z</time>
      </trkpt>
      <trkpt lat="43.34031" lon="2.64318">
        <ele>358.71</ele>
        <time>2017-11-27T13:49:46Z</time>
      </trkpt>
      <trkpt lat="43.34031" lon="2.64314">
        <ele>359.67</ele>
        <time>2017-11-27T13:49:54Z</time>
      </trkpt>
      <trkpt lat="43.3403" lon="2.6431">
        <ele>360.63</ele>
        <time>2017-11-27T13:50:04Z</time>
      </trkpt>
      <trkpt lat="43.34027" lon="2.643">
        <ele>362.07</ele>
        <time>2017-11-27T13:50:16Z</time>
      </trkpt>
      <trkpt lat="43.34027" lon="2.64298">
        <ele>362.07</ele>
        <time>2017-11-27T13:50:30Z</time>
      </trkpt>
      <trkpt lat="43.34029" lon="2.64294">
        <ele>362.55</ele>
        <time>2017-11-27T13:50:38Z</time>
      </trkpt>
      <trkpt lat="43.34031" lon="2.64286">
        <ele>363.04</ele>
        <time>2017-11-27T13:50:48Z</time>
      </trkpt>
      <trkpt lat="43.34031" lon="2.64284">
        <ele>363.04</ele>
        <time>2017-11-27T13:51:03Z</time>
      </trkpt>
      <trkpt lat="43.34029" lon="2.64287">
        <ele>362.07</ele>
        <time>2017-11-27T13:51:23Z</time>
      </trkpt>
      <trkpt lat="43.34029" lon="2.64287">
        <ele>362.07</ele>
        <time>2017-11-27T13:51:34Z</time>
      </trkpt>
      <trkpt lat="43.34029" lon="2.64288">
        <ele>361.59</ele>
        <time>2017-11-27T13:51:50Z</time>
      </trkpt>
      <trkpt lat="43.34029" lon="2.64288">
        <ele>362.07</ele>
        <time>2017-11-27T13:52:14Z</time>
      </trkpt>
      <trkpt lat="43.34029" lon="2.64288">
        <ele>361.59</ele>
        <time>2017-11-27T13:52:30Z</time>
      </trkpt>
      <trkpt lat="43.3403" lon="2.64289">
        <ele>362.07</ele>
        <time>2017-11-27T13:52:56Z</time>
      </trkpt>
      <trkpt lat="43.34033" lon="2.64287">
        <ele>362.07</ele>
        <time>2017-11-27T13:53:06Z</time>
      </trkpt>
      <trkpt lat="43.34035" lon="2.6428">
        <ele>362.07</ele>
        <time>2017-11-27T13:53:17Z</time>
      </trkpt>
      <trkpt lat="43.34035" lon="2.64266">
        <ele>362.55</ele>
        <time>2017-11-27T13:53:31Z</time>
      </trkpt>
      <trkpt lat="43.34035" lon="2.64262">
        <ele>363.04</ele>
        <time>2017-11-27T13:53:35Z</time>
      </trkpt>
      <trkpt lat="43.34033" lon="2.64258">
        <ele>362.55</ele>
        <time>2017-11-27T13:53:38Z</time>
      </trkpt>
      <trkpt lat="43.34032" lon="2.64245">
        <ele>361.59</ele>
        <time>2017-11-27T13:53:51Z</time>
      </trkpt>
      <trkpt lat="43.3403" lon="2.64234">
        <ele>360.15</ele>
        <time>2017-11-27T13:54:02Z</time>
      </trkpt>
      <trkpt lat="43.3403" lon="2.64223">
        <ele>359.19</ele>
        <time>2017-11-27T13:54:15Z</time>
      </trkpt>
      <trkpt lat="43.3403" lon="2.64222">
        <ele>359.19</ele>
        <time>2017-11-27T13:54:16Z</time>
      </trkpt>
      <trkpt lat="43.34028" lon="2.64217">
        <ele>358.23</ele>
        <time>2017-11-27T13:54:20Z</time>
      </trkpt>
      <trkpt lat="43.34025" lon="2.64207">
        <ele>356.79</ele>
        <time>2017-11-27T13:54:31Z</time>
      </trkpt>
      <trkpt lat="43.34025" lon="2.64194">
        <ele>354.86</ele>
        <time>2017-11-27T13:54:42Z</time>
      </trkpt>
      <trkpt lat="43.34029" lon="2.64187">
        <ele>354.86</ele>
        <time>2017-11-27T13:54:53Z</time>
      </trkpt>
      <trkpt lat="43.34031" lon="2.64178">
        <ele>354.86</ele>
        <time>2017-11-27T13:55:06Z</time>
      </trkpt>
      <trkpt lat="43.34037" lon="2.64167">
        <ele>355.34</ele>
        <time>2017-11-27T13:55:18Z</time>
      </trkpt>
      <trkpt lat="43.3404" lon="2.64165">
        <ele>354.86</ele>
        <time>2017-11-27T13:55:20Z</time>
      </trkpt>
      <trkpt lat="43.34047" lon="2.64159">
        <ele>353.9</ele>
        <time>2017-11-27T13:55:32Z</time>
      </trkpt>
      <trkpt lat="43.34056" lon="2.64156">
        <ele>352.94</ele>
        <time>2017-11-27T13:55:43Z</time>
      </trkpt>
      <trkpt lat="43.34061" lon="2.64149">
        <ele>351.98</ele>
        <time>2017-11-27T13:55:54Z</time>
      </trkpt>
      <trkpt lat="43.34059" lon="2.64136">
        <ele>350.06</ele>
        <time>2017-11-27T13:56:05Z</time>
      </trkpt>
      <trkpt lat="43.3406" lon="2.6413">
        <ele>349.58</ele>
        <time>2017-11-27T13:56:10Z</time>
      </trkpt>
      <trkpt lat="43.34059" lon="2.64121">
        <ele>348.62</ele>
        <time>2017-11-27T13:56:17Z</time>
      </trkpt>
      <trkpt lat="43.34059" lon="2.64118">
        <ele>348.13</ele>
        <time>2017-11-27T13:56:19Z</time>
      </trkpt>
      <trkpt lat="43.34057" lon="2.64112">
        <ele>347.65</ele>
        <time>2017-11-27T13:56:25Z</time>
      </trkpt>
      <trkpt lat="43.34056" lon="2.64102">
        <ele>347.17</ele>
        <time>2017-11-27T13:56:34Z</time>
      </trkpt>
      <trkpt lat="43.34054" lon="2.64093">
        <ele>346.21</ele>
        <time>2017-11-27T13:56:43Z</time>
      </trkpt>
      <trkpt lat="43.34054" lon="2.64088">
        <ele>346.21</ele>
        <time>2017-11-27T13:56:46Z</time>
      </trkpt>
      <trkpt lat="43.34053" lon="2.64083">
        <ele>345.73</ele>
        <time>2017-11-27T13:56:50Z</time>
      </trkpt>
      <trkpt lat="43.3405" lon="2.64066">
        <ele>344.77</ele>
        <time>2017-11-27T13:57:03Z</time>
      </trkpt>
      <trkpt lat="43.34052" lon="2.64056">
        <ele>344.29</ele>
        <time>2017-11-27T13:57:11Z</time>
      </trkpt>
      <trkpt lat="43.34052" lon="2.64048">
        <ele>344.77</ele>
        <time>2017-11-27T13:57:19Z</time>
      </trkpt>
      <trkpt lat="43.34054" lon="2.64043">
        <ele>344.29</ele>
        <time>2017-11-27T13:57:23Z</time>
      </trkpt>
      <trkpt lat="43.34054" lon="2.64037">
        <ele>344.29</ele>
        <time>2017-11-27T13:57:28Z</time>
      </trkpt>
      <trkpt lat="43.34052" lon="2.64032">
        <ele>343.81</ele>
        <time>2017-11-27T13:57:39Z</time>
      </trkpt>
      <trkpt lat="43.34053" lon="2.64026">
        <ele>343.81</ele>
        <time>2017-11-27T13:57:57Z</time>
      </trkpt>
      <trkpt lat="43.34053" lon="2.64024">
        <ele>343.81</ele>
        <time>2017-11-27T13:58:04Z</time>
      </trkpt>
      <trkpt lat="43.34053" lon="2.64022">
        <ele>343.33</ele>
        <time>2017-11-27T13:58:06Z</time>
      </trkpt>
      <trkpt lat="43.34053" lon="2.64018">
        <ele>343.81</ele>
        <time>2017-11-27T13:58:09Z</time>
      </trkpt>
      <trkpt lat="43.3405" lon="2.6401">
        <ele>344.29</ele>
        <time>2017-11-27T13:58:18Z</time>
      </trkpt>
      <trkpt lat="43.34047" lon="2.63995">
        <ele>344.29</ele>
        <time>2017-11-27T13:58:31Z</time>
      </trkpt>
      <trkpt lat="43.34049" lon="2.63978">
        <ele>344.29</ele>
        <time>2017-11-27T13:58:43Z</time>
      </trkpt>
      <trkpt lat="43.3405" lon="2.63969">
        <ele>343.81</ele>
        <time>2017-11-27T13:58:49Z</time>
      </trkpt>
      <trkpt lat="43.34051" lon="2.63959">
        <ele>342.85</ele>
        <time>2017-11-27T13:58:56Z</time>
      </trkpt>
      <trkpt lat="43.34051" lon="2.63953">
        <ele>341.89</ele>
        <time>2017-11-27T13:59:00Z</time>
      </trkpt>
      <trkpt lat="43.34053" lon="2.63944">
        <ele>341.89</ele>
        <time>2017-11-27T13:59:08Z</time>
      </trkpt>
      <trkpt lat="43.34047" lon="2.63933">
        <ele>340.44</ele>
        <time>2017-11-27T13:59:21Z</time>
      </trkpt>
      <trkpt lat="43.34044" lon="2.63925">
        <ele>338.52</ele>
        <time>2017-11-27T13:59:31Z</time>
      </trkpt>
      <trkpt lat="43.34042" lon="2.63918">
        <ele>337.08</ele>
        <time>2017-11-27T13:59:42Z</time>
      </trkpt>
      <trkpt lat="43.3404" lon="2.63914">
        <ele>337.08</ele>
        <time>2017-11-27T13:59:55Z</time>
      </trkpt>
      <trkpt lat="43.34038" lon="2.6391">
        <ele>336.12</ele>
        <time>2017-11-27T14:00:13Z</time>
      </trkpt>
      <trkpt lat="43.34038" lon="2.63909">
        <ele>336.12</ele>
        <time>2017-11-27T14:00:15Z</time>
      </trkpt>
      <trkpt lat="43.34036" lon="2.63902">
        <ele>334.68</ele>
        <time>2017-11-27T14:00:20Z</time>
      </trkpt>
      <trkpt lat="43.34035" lon="2.63899">
        <ele>334.2</ele>
        <time>2017-11-27T14:00:22Z</time>
      </trkpt>
      <trkpt lat="43.34032" lon="2.63895">
        <ele>333.23</ele>
        <time>2017-11-27T14:00:26Z</time>
      </trkpt>
      <trkpt lat="43.34032" lon="2.63891">
        <ele>332.75</ele>
        <time>2017-11-27T14:00:28Z</time>
      </trkpt>
      <trkpt lat="43.3403" lon="2.63877">
        <ele>331.31</ele>
        <time>2017-11-27T14:00:36Z</time>
      </trkpt>
      <trkpt lat="43.34028" lon="2.63863">
        <ele>330.35</ele>
        <time>2017-11-27T14:00:44Z</time>
      </trkpt>
      <trkpt lat="43.34026" lon="2.63853">
        <ele>329.39</ele>
        <time>2017-11-27T14:00:50Z</time>
      </trkpt>
      <trkpt lat="43.34024" lon="2.63845">
        <ele>328.43</ele>
        <time>2017-11-27T14:00:54Z</time>
      </trkpt>
      <trkpt lat="43.34018" lon="2.63829">
        <ele>326.02</ele>
        <time>2017-11-27T14:01:03Z</time>
      </trkpt>
      <trkpt lat="43.34016" lon="2.63825">
        <ele>325.54</ele>
        <time>2017-11-27T14:01:06Z</time>
      </trkpt>
      <trkpt lat="43.34013" lon="2.63816">
        <ele>325.54</ele>
        <time>2017-11-27T14:01:11Z</time>
      </trkpt>
      <trkpt lat="43.34008" lon="2.63796">
        <ele>321.7</ele>
        <time>2017-11-27T14:01:22Z</time>
      </trkpt>
      <trkpt lat="43.34005" lon="2.63789">
        <ele>320.74</ele>
        <time>2017-11-27T14:01:27Z</time>
      </trkpt>
      <trkpt lat="43.34005" lon="2.63779">
        <ele>320.26</ele>
        <time>2017-11-27T14:01:34Z</time>
      </trkpt>
      <trkpt lat="43.34007" lon="2.63774">
        <ele>319.78</ele>
        <time>2017-11-27T14:01:38Z</time>
      </trkpt>
      <trkpt lat="43.3401" lon="2.63759">
        <ele>318.81</ele>
        <time>2017-11-27T14:01:51Z</time>
      </trkpt>
      <trkpt lat="43.34012" lon="2.63752">
        <ele>317.85</ele>
        <time>2017-11-27T14:02:03Z</time>
      </trkpt>
      <trkpt lat="43.34018" lon="2.63742">
        <ele>315.93</ele>
        <time>2017-11-27T14:02:15Z</time>
      </trkpt>
      <trkpt lat="43.34022" lon="2.63733">
        <ele>314.49</ele>
        <time>2017-11-27T14:02:26Z</time>
      </trkpt>
      <trkpt lat="43.34018" lon="2.63728">
        <ele>314.01</ele>
        <time>2017-11-27T14:02:40Z</time>
      </trkpt>
      <trkpt lat="43.34016" lon="2.63727">
        <ele>313.53</ele>
        <time>2017-11-27T14:02:44Z</time>
      </trkpt>
      <trkpt lat="43.34005" lon="2.63724">
        <ele>312.57</ele>
        <time>2017-11-27T14:02:56Z</time>
      </trkpt>
      <trkpt lat="43.33998" lon="2.63724">
        <ele>312.09</ele>
        <time>2017-11-27T14:03:03Z</time>
      </trkpt>
      <trkpt lat="43.33995" lon="2.63725">
        <ele>312.09</ele>
        <time>2017-11-27T14:03:06Z</time>
      </trkpt>
      <trkpt lat="43.33984" lon="2.63726">
        <ele>310.64</ele>
        <time>2017-11-27T14:03:18Z</time>
      </trkpt>
      <trkpt lat="43.33979" lon="2.63728">
        <ele>310.16</ele>
        <time>2017-11-27T14:03:22Z</time>
      </trkpt>
      <trkpt lat="43.3397" lon="2.63736">
        <ele>309.68</ele>
        <time>2017-11-27T14:03:33Z</time>
      </trkpt>
      <trkpt lat="43.33964" lon="2.6375">
        <ele>308.24</ele>
        <time>2017-11-27T14:03:47Z</time>
      </trkpt>
      <trkpt lat="43.33963" lon="2.63741">
        <ele>306.8</ele>
        <time>2017-11-27T14:04:00Z</time>
      </trkpt>
      <trkpt lat="43.33962" lon="2.63738">
        <ele>306.32</ele>
        <time>2017-11-27T14:04:03Z</time>
      </trkpt>
      <trkpt lat="43.33961" lon="2.63727">
        <ele>305.36</ele>
        <time>2017-11-27T14:04:14Z</time>
      </trkpt>
      <trkpt lat="43.33958" lon="2.63714">
        <ele>303.43</ele>
        <time>2017-11-27T14:04:26Z</time>
      </trkpt>
      <trkpt lat="43.33956" lon="2.63709">
        <ele>302.47</ele>
        <time>2017-11-27T14:04:30Z</time>
      </trkpt>
      <trkpt lat="43.33952" lon="2.63703">
        <ele>301.99</ele>
        <time>2017-11-27T14:04:37Z</time>
      </trkpt>
      <trkpt lat="43.33952" lon="2.63692">
        <ele>301.03</ele>
        <time>2017-11-27T14:04:45Z</time>
      </trkpt>
      <trkpt lat="43.33954" lon="2.63688">
        <ele>300.55</ele>
        <time>2017-11-27T14:04:48Z</time>
      </trkpt>
      <trkpt lat="43.33958" lon="2.6368">
        <ele>300.07</ele>
        <time>2017-11-27T14:04:55Z</time>
      </trkpt>
      <trkpt lat="43.33959" lon="2.63661">
        <ele>298.63</ele>
        <time>2017-11-27T14:05:07Z</time>
      </trkpt>
      <trkpt lat="43.3395" lon="2.6365">
        <ele>296.22</ele>
        <time>2017-11-27T14:05:19Z</time>
      </trkpt>
      <trkpt lat="43.33939" lon="2.63642">
        <ele>295.74</ele>
        <time>2017-11-27T14:05:32Z</time>
      </trkpt>
      <trkpt lat="43.3393" lon="2.6363">
        <ele>295.26</ele>
        <time>2017-11-27T14:05:45Z</time>
      </trkpt>
      <trkpt lat="43.33929" lon="2.63626">
        <ele>294.78</ele>
        <time>2017-11-27T14:05:48Z</time>
      </trkpt>
      <trkpt lat="43.33921" lon="2.63623">
        <ele>294.3</ele>
        <time>2017-11-27T14:05:55Z</time>
      </trkpt>
      <trkpt lat="43.33918" lon="2.63625">
        <ele>294.3</ele>
        <time>2017-11-27T14:05:58Z</time>
      </trkpt>
      <trkpt lat="43.33909" lon="2.63618">
        <ele>293.82</ele>
        <time>2017-11-27T14:06:08Z</time>
      </trkpt>
      <trkpt lat="43.33908" lon="2.63616">
        <ele>293.82</ele>
        <time>2017-11-27T14:06:10Z</time>
      </trkpt>
      <trkpt lat="43.33907" lon="2.63606">
        <ele>292.86</ele>
        <time>2017-11-27T14:06:18Z</time>
      </trkpt>
      <trkpt lat="43.33905" lon="2.636">
        <ele>292.86</ele>
        <time>2017-11-27T14:06:25Z</time>
      </trkpt>
      <trkpt lat="43.339" lon="2.63584">
        <ele>290.94</ele>
        <time>2017-11-27T14:06:39Z</time>
      </trkpt>
      <trkpt lat="43.33896" lon="2.63576">
        <ele>289.97</ele>
        <time>2017-11-27T14:06:49Z</time>
      </trkpt>
      <trkpt lat="43.33893" lon="2.63573">
        <ele>289.49</ele>
        <time>2017-11-27T14:06:52Z</time>
      </trkpt>
      <trkpt lat="43.33887" lon="2.63559">
        <ele>287.57</ele>
        <time>2017-11-27T14:07:06Z</time>
      </trkpt>
      <trkpt lat="43.33882" lon="2.63548">
        <ele>286.61</ele>
        <time>2017-11-27T14:07:17Z</time>
      </trkpt>
      <trkpt lat="43.33877" lon="2.63536">
        <ele>285.17</ele>
        <time>2017-11-27T14:07:29Z</time>
      </trkpt>
      <trkpt lat="43.33876" lon="2.63535">
        <ele>284.69</ele>
        <time>2017-11-27T14:07:30Z</time>
      </trkpt>
      <trkpt lat="43.33869" lon="2.6352">
        <ele>283.73</ele>
        <time>2017-11-27T14:07:43Z</time>
      </trkpt>
      <trkpt lat="43.33866" lon="2.63506">
        <ele>283.25</ele>
        <time>2017-11-27T14:07:54Z</time>
      </trkpt>
      <trkpt lat="43.33866" lon="2.63503">
        <ele>282.77</ele>
        <time>2017-11-27T14:07:57Z</time>
      </trkpt>
      <trkpt lat="43.33867" lon="2.63496">
        <ele>282.77</ele>
        <time>2017-11-27T14:08:03Z</time>
      </trkpt>
      <trkpt lat="43.33867" lon="2.6349">
        <ele>282.77</ele>
        <time>2017-11-27T14:08:08Z</time>
      </trkpt>
      <trkpt lat="43.33863" lon="2.63475">
        <ele>283.73</ele>
        <time>2017-11-27T14:08:20Z</time>
      </trkpt>
      <trkpt lat="43.33861" lon="2.63469">
        <ele>284.21</ele>
        <time>2017-11-27T14:08:25Z</time>
      </trkpt>
      <trkpt lat="43.33857" lon="2.63467">
        <ele>283.73</ele>
        <time>2017-11-27T14:08:39Z</time>
      </trkpt>
      <trkpt lat="43.33857" lon="2.63468">
        <ele>283.25</ele>
        <time>2017-11-27T14:08:41Z</time>
      </trkpt>
      <trkpt lat="43.33856" lon="2.63471">
        <ele>283.25</ele>
        <time>2017-11-27T14:08:43Z</time>
      </trkpt>
      <trkpt lat="43.33849" lon="2.63485">
        <ele>281.32</ele>
        <time>2017-11-27T14:08:58Z</time>
      </trkpt>
      <trkpt lat="43.33845" lon="2.63493">
        <ele>281.32</ele>
        <time>2017-11-27T14:09:05Z</time>
      </trkpt>
      <trkpt lat="43.33835" lon="2.63506">
        <ele>281.32</ele>
        <time>2017-11-27T14:09:19Z</time>
      </trkpt>
      <trkpt lat="43.33833" lon="2.63509">
        <ele>281.32</ele>
        <time>2017-11-27T14:09:23Z</time>
      </trkpt>
      <trkpt lat="43.33828" lon="2.63514">
        <ele>280.84</ele>
        <time>2017-11-27T14:09:29Z</time>
      </trkpt>
      <trkpt lat="43.33826" lon="2.63517">
        <ele>280.84</ele>
        <time>2017-11-27T14:09:31Z</time>
      </trkpt>
      <trkpt lat="43.33821" lon="2.63531">
        <ele>280.36</ele>
        <time>2017-11-27T14:09:44Z</time>
      </trkpt>
      <trkpt lat="43.33821" lon="2.63535">
        <ele>279.88</ele>
        <time>2017-11-27T14:09:57Z</time>
      </trkpt>
      <trkpt lat="43.33821" lon="2.63535">
        <ele>279.88</ele>
        <time>2017-11-27T14:10:13Z</time>
      </trkpt>
      <trkpt lat="43.33817" lon="2.63537">
        <ele>279.88</ele>
        <time>2017-11-27T14:10:18Z</time>
      </trkpt>
      <trkpt lat="43.33816" lon="2.63539">
        <ele>280.36</ele>
        <time>2017-11-27T14:10:20Z</time>
      </trkpt>
      <trkpt lat="43.33814" lon="2.63542">
        <ele>279.4</ele>
        <time>2017-11-27T14:10:23Z</time>
      </trkpt>
      <trkpt lat="43.3381" lon="2.63549">
        <ele>279.4</ele>
        <time>2017-11-27T14:10:29Z</time>
      </trkpt>
      <trkpt lat="43.338" lon="2.63565">
        <ele>279.4</ele>
        <time>2017-11-27T14:10:43Z</time>
      </trkpt>
      <trkpt lat="43.33796" lon="2.63572">
        <ele>278.92</ele>
        <time>2017-11-27T14:10:50Z</time>
      </trkpt>
      <trkpt lat="43.33794" lon="2.63576">
        <ele>278.92</ele>
        <time>2017-11-27T14:10:53Z</time>
      </trkpt>
      <trkpt lat="43.33785" lon="2.6359">
        <ele>277.96</ele>
        <time>2017-11-27T14:11:07Z</time>
      </trkpt>
      <trkpt lat="43.33783" lon="2.63592">
        <ele>277.96</ele>
        <time>2017-11-27T14:11:09Z</time>
      </trkpt>
      <trkpt lat="43.33776" lon="2.63601">
        <ele>277.96</ele>
        <time>2017-11-27T14:11:19Z</time>
      </trkpt>
      <trkpt lat="43.33771" lon="2.63607">
        <ele>277</ele>
        <time>2017-11-27T14:11:26Z</time>
      </trkpt>
      <trkpt lat="43.33767" lon="2.6361">
        <ele>277</ele>
        <time>2017-11-27T14:11:30Z</time>
      </trkpt>
      <trkpt lat="43.33766" lon="2.63613">
        <ele>276.52</ele>
        <time>2017-11-27T14:11:32Z</time>
      </trkpt>
      <trkpt lat="43.33763" lon="2.63614">
        <ele>276.52</ele>
        <time>2017-11-27T14:11:35Z</time>
      </trkpt>
      <trkpt lat="43.33752" lon="2.63628">
        <ele>275.56</ele>
        <time>2017-11-27T14:11:50Z</time>
      </trkpt>
      <trkpt lat="43.33739" lon="2.63643">
        <ele>274.59</ele>
        <time>2017-11-27T14:12:06Z</time>
      </trkpt>
      <trkpt lat="43.33735" lon="2.63648">
        <ele>275.07</ele>
        <time>2017-11-27T14:12:12Z</time>
      </trkpt>
      <trkpt lat="43.33728" lon="2.63653">
        <ele>274.59</ele>
        <time>2017-11-27T14:12:20Z</time>
      </trkpt>
      <trkpt lat="43.33713" lon="2.63662">
        <ele>274.11</ele>
        <time>2017-11-27T14:12:35Z</time>
      </trkpt>
      <trkpt lat="43.33712" lon="2.63662">
        <ele>274.11</ele>
        <time>2017-11-27T14:12:36Z</time>
      </trkpt>
      <trkpt lat="43.33702" lon="2.63666">
        <ele>273.63</ele>
        <time>2017-11-27T14:12:50Z</time>
      </trkpt>
      <trkpt lat="43.337" lon="2.63668">
        <ele>273.63</ele>
        <time>2017-11-27T14:13:09Z</time>
      </trkpt>
      <trkpt lat="43.33693" lon="2.6367">
        <ele>272.67</ele>
        <time>2017-11-27T14:13:21Z</time>
      </trkpt>
      <trkpt lat="43.33692" lon="2.6367">
        <ele>272.67</ele>
        <time>2017-11-27T14:13:37Z</time>
      </trkpt>
      <trkpt lat="43.33691" lon="2.63669">
        <ele>273.15</ele>
        <time>2017-11-27T14:13:56Z</time>
      </trkpt>
      <trkpt lat="43.33691" lon="2.63669">
        <ele>273.15</ele>
        <time>2017-11-27T14:14:10Z</time>
      </trkpt>
      <trkpt lat="43.33692" lon="2.63669">
        <ele>272.67</ele>
        <time>2017-11-27T14:14:16Z</time>
      </trkpt>
      <trkpt lat="43.33686" lon="2.63672">
        <ele>272.67</ele>
        <time>2017-11-27T14:14:23Z</time>
      </trkpt>
      <trkpt lat="43.33675" lon="2.63676">
        <ele>272.67</ele>
        <time>2017-11-27T14:14:31Z</time>
      </trkpt>
      <trkpt lat="43.33657" lon="2.63683">
        <ele>272.19</ele>
        <time>2017-11-27T14:14:45Z</time>
      </trkpt>
      <trkpt lat="43.33636" lon="2.63693">
        <ele>272.19</ele>
        <time>2017-11-27T14:15:01Z</time>
      </trkpt>
      <trkpt lat="43.33621" lon="2.63699">
        <ele>272.67</ele>
        <time>2017-11-27T14:15:13Z</time>
      </trkpt>
      <trkpt lat="43.33612" lon="2.63701">
        <ele>273.15</ele>
        <time>2017-11-27T14:15:20Z</time>
      </trkpt>
      <trkpt lat="43.3361" lon="2.63701">
        <ele>272.67</ele>
        <time>2017-11-27T14:15:22Z</time>
      </trkpt>
      <trkpt lat="43.33604" lon="2.63702">
        <ele>273.15</ele>
        <time>2017-11-27T14:15:27Z</time>
      </trkpt>
      <trkpt lat="43.33585" lon="2.63707">
        <ele>273.63</ele>
        <time>2017-11-27T14:15:43Z</time>
      </trkpt>
      <trkpt lat="43.33567" lon="2.63706">
        <ele>274.59</ele>
        <time>2017-11-27T14:15:58Z</time>
      </trkpt>
      <trkpt lat="43.33565" lon="2.63706">
        <ele>274.59</ele>
        <time>2017-11-27T14:16:00Z</time>
      </trkpt>
      <trkpt lat="43.33552" lon="2.63697">
        <ele>272.67</ele>
        <time>2017-11-27T14:16:14Z</time>
      </trkpt>
      <trkpt lat="43.33536" lon="2.6369">
        <ele>272.19</ele>
        <time>2017-11-27T14:16:27Z</time>
      </trkpt>
      <trkpt lat="43.33528" lon="2.63689">
        <ele>271.71</ele>
        <time>2017-11-27T14:16:35Z</time>
      </trkpt>
      <trkpt lat="43.33511" lon="2.63693">
        <ele>271.23</ele>
        <time>2017-11-27T14:16:48Z</time>
      </trkpt>
      <trkpt lat="43.33502" lon="2.63703">
        <ele>271.23</ele>
        <time>2017-11-27T14:16:58Z</time>
      </trkpt>
      <trkpt lat="43.33497" lon="2.63709">
        <ele>270.75</ele>
        <time>2017-11-27T14:17:04Z</time>
      </trkpt>
      <trkpt lat="43.33491" lon="2.6371">
        <ele>270.75</ele>
        <time>2017-11-27T14:17:09Z</time>
      </trkpt>
      <trkpt lat="43.33478" lon="2.6372">
        <ele>269.31</ele>
        <time>2017-11-27T14:17:22Z</time>
      </trkpt>
      <trkpt lat="43.33472" lon="2.63721">
        <ele>268.83</ele>
        <time>2017-11-27T14:17:27Z</time>
      </trkpt>
      <trkpt lat="43.33463" lon="2.63722">
        <ele>266.9</ele>
        <time>2017-11-27T14:17:36Z</time>
      </trkpt>
      <trkpt lat="43.33458" lon="2.6372">
        <ele>266.9</ele>
        <time>2017-11-27T14:17:44Z</time>
      </trkpt>
      <trkpt lat="43.33446" lon="2.63719">
        <ele>264.98</ele>
        <time>2017-11-27T14:17:55Z</time>
      </trkpt>
      <trkpt lat="43.33442" lon="2.63714">
        <ele>264.5</ele>
        <time>2017-11-27T14:18:00Z</time>
      </trkpt>
      <trkpt lat="43.33427" lon="2.63711">
        <ele>262.58</ele>
        <time>2017-11-27T14:18:14Z</time>
      </trkpt>
      <trkpt lat="43.33416" lon="2.63714">
        <ele>262.1</ele>
        <time>2017-11-27T14:18:26Z</time>
      </trkpt>
      <trkpt lat="43.33414" lon="2.63715">
        <ele>262.1</ele>
        <time>2017-11-27T14:18:28Z</time>
      </trkpt>
      <trkpt lat="43.33412" lon="2.63716">
        <ele>262.1</ele>
        <time>2017-11-27T14:18:30Z</time>
      </trkpt>
      <trkpt lat="43.33408" lon="2.63717">
        <ele>261.62</ele>
        <time>2017-11-27T14:18:36Z</time>
      </trkpt>
      <trkpt lat="43.33404" lon="2.63717">
        <ele>261.62</ele>
        <time>2017-11-27T14:18:40Z</time>
      </trkpt>
      <trkpt lat="43.33402" lon="2.63716">
        <ele>261.14</ele>
        <time>2017-11-27T14:18:42Z</time>
      </trkpt>
      <trkpt lat="43.33399" lon="2.63716">
        <ele>260.65</ele>
        <time>2017-11-27T14:18:45Z</time>
      </trkpt>
      <trkpt lat="43.33396" lon="2.63715">
        <ele>260.65</ele>
        <time>2017-11-27T14:18:48Z</time>
      </trkpt>
      <trkpt lat="43.33383" lon="2.63715">
        <ele>258.73</ele>
        <time>2017-11-27T14:19:02Z</time>
      </trkpt>
      <trkpt lat="43.33382" lon="2.63715">
        <ele>258.25</ele>
        <time>2017-11-27T14:19:03Z</time>
      </trkpt>
      <trkpt lat="43.3338" lon="2.63716">
        <ele>258.25</ele>
        <time>2017-11-27T14:19:06Z</time>
      </trkpt>
      <trkpt lat="43.33374" lon="2.63716">
        <ele>257.29</ele>
        <time>2017-11-27T14:19:12Z</time>
      </trkpt>
      <trkpt lat="43.3337" lon="2.63716">
        <ele>256.33</ele>
        <time>2017-11-27T14:19:15Z</time>
      </trkpt>
      <trkpt lat="43.33366" lon="2.63717">
        <ele>256.33</ele>
        <time>2017-11-27T14:19:20Z</time>
      </trkpt>
      <trkpt lat="43.33362" lon="2.63718">
        <ele>255.37</ele>
        <time>2017-11-27T14:19:26Z</time>
      </trkpt>
      <trkpt lat="43.33358" lon="2.63718">
        <ele>254.89</ele>
        <time>2017-11-27T14:19:31Z</time>
      </trkpt>
      <trkpt lat="43.33346" lon="2.63718">
        <ele>252.48</ele>
        <time>2017-11-27T14:19:45Z</time>
      </trkpt>
      <trkpt lat="43.33343" lon="2.63715">
        <ele>251.52</ele>
        <time>2017-11-27T14:19:49Z</time>
      </trkpt>
      <trkpt lat="43.33335" lon="2.63714">
        <ele>250.56</ele>
        <time>2017-11-27T14:20:01Z</time>
      </trkpt>
      <trkpt lat="43.33335" lon="2.63714">
        <ele>249.6</ele>
        <time>2017-11-27T14:20:34Z</time>
      </trkpt>
      <trkpt lat="43.33329" lon="2.63712">
        <ele>248.64</ele>
        <time>2017-11-27T14:20:43Z</time>
      </trkpt>
      <trkpt lat="43.33326" lon="2.6371">
        <ele>247.68</ele>
        <time>2017-11-27T14:20:47Z</time>
      </trkpt>
      <trkpt lat="43.33315" lon="2.63712">
        <ele>245.27</ele>
        <time>2017-11-27T14:20:56Z</time>
      </trkpt>
      <trkpt lat="43.33301" lon="2.63717">
        <ele>241.91</ele>
        <time>2017-11-27T14:21:10Z</time>
      </trkpt>
      <trkpt lat="43.33296" lon="2.63717">
        <ele>241.91</ele>
        <time>2017-11-27T14:21:25Z</time>
      </trkpt>
      <trkpt lat="43.33296" lon="2.63717">
        <ele>241.91</ele>
        <time>2017-11-27T14:21:38Z</time>
      </trkpt>
      <trkpt lat="43.33297" lon="2.63716">
        <ele>241.43</ele>
        <time>2017-11-27T14:21:44Z</time>
      </trkpt>
      <trkpt lat="43.33293" lon="2.63711">
        <ele>239.02</ele>
        <time>2017-11-27T14:21:54Z</time>
      </trkpt>
      <trkpt lat="43.33292" lon="2.63712">
        <ele>238.54</ele>
        <time>2017-11-27T14:22:03Z</time>
      </trkpt>
      <trkpt lat="43.33286" lon="2.63712">
        <ele>237.1</ele>
        <time>2017-11-27T14:22:08Z</time>
      </trkpt>
      <trkpt lat="43.33284" lon="2.63713">
        <ele>236.62</ele>
        <time>2017-11-27T14:22:10Z</time>
      </trkpt>
      <trkpt lat="43.33278" lon="2.63721">
        <ele>236.14</ele>
        <time>2017-11-27T14:22:15Z</time>
      </trkpt>
      <trkpt lat="43.33266" lon="2.63735">
        <ele>234.22</ele>
        <time>2017-11-27T14:22:27Z</time>
      </trkpt>
      <trkpt lat="43.3326" lon="2.63743">
        <ele>233.26</ele>
        <time>2017-11-27T14:22:34Z</time>
      </trkpt>
      <trkpt lat="43.33248" lon="2.63757">
        <ele>230.85</ele>
        <time>2017-11-27T14:22:47Z</time>
      </trkpt>
      <trkpt lat="43.33243" lon="2.63765">
        <ele>229.41</ele>
        <time>2017-11-27T14:22:55Z</time>
      </trkpt>
      <trkpt lat="43.33233" lon="2.63769">
        <ele>227.01</ele>
        <time>2017-11-27T14:23:07Z</time>
      </trkpt>
      <trkpt lat="43.33231" lon="2.63769">
        <ele>226.53</ele>
        <time>2017-11-27T14:23:09Z</time>
      </trkpt>
      <trkpt lat="43.33222" lon="2.63768">
        <ele>225.57</ele>
        <time>2017-11-27T14:23:18Z</time>
      </trkpt>
      <trkpt lat="43.33208" lon="2.63771">
        <ele>223.16</ele>
        <time>2017-11-27T14:23:29Z</time>
      </trkpt>
      <trkpt lat="43.3319" lon="2.63774">
        <ele>221.24</ele>
        <time>2017-11-27T14:23:44Z</time>
      </trkpt>
      <trkpt lat="43.33185" lon="2.63777">
        <ele>221.24</ele>
        <time>2017-11-27T14:23:48Z</time>
      </trkpt>
      <trkpt lat="43.3317" lon="2.63778">
        <ele>219.32</ele>
        <time>2017-11-27T14:24:01Z</time>
      </trkpt>
      <trkpt lat="43.33153" lon="2.63781">
        <ele>218.36</ele>
        <time>2017-11-27T14:24:15Z</time>
      </trkpt>
      <trkpt lat="43.33149" lon="2.63783">
        <ele>217.4</ele>
        <time>2017-11-27T14:24:20Z</time>
      </trkpt>
      <trkpt lat="43.33143" lon="2.63785">
        <ele>215.95</ele>
        <time>2017-11-27T14:24:28Z</time>
      </trkpt>
      <trkpt lat="43.33139" lon="2.63785">
        <ele>215.47</ele>
        <time>2017-11-27T14:24:33Z</time>
      </trkpt>
      <trkpt lat="43.33136" lon="2.63783">
        <ele>215.47</ele>
        <time>2017-11-27T14:24:36Z</time>
      </trkpt>
      <trkpt lat="43.33131" lon="2.63783">
        <ele>214.51</ele>
        <time>2017-11-27T14:24:42Z</time>
      </trkpt>
      <trkpt lat="43.33129" lon="2.63784">
        <ele>214.51</ele>
        <time>2017-11-27T14:24:44Z</time>
      </trkpt>
      <trkpt lat="43.33124" lon="2.63781">
        <ele>213.55</ele>
        <time>2017-11-27T14:24:51Z</time>
      </trkpt>
      <trkpt lat="43.33117" lon="2.63777">
        <ele>213.07</ele>
        <time>2017-11-27T14:25:04Z</time>
      </trkpt>
      <trkpt lat="43.33115" lon="2.63777">
        <ele>212.11</ele>
        <time>2017-11-27T14:25:08Z</time>
      </trkpt>
      <trkpt lat="43.33112" lon="2.63774">
        <ele>211.63</ele>
        <time>2017-11-27T14:25:15Z</time>
      </trkpt>
      <trkpt lat="43.33102" lon="2.63771">
        <ele>210.19</ele>
        <time>2017-11-27T14:25:26Z</time>
      </trkpt>
      <trkpt lat="43.33092" lon="2.63768">
        <ele>208.74</ele>
        <time>2017-11-27T14:25:39Z</time>
      </trkpt>
      <trkpt lat="43.3309" lon="2.63767">
        <ele>208.74</ele>
        <time>2017-11-27T14:25:41Z</time>
      </trkpt>
      <trkpt lat="43.33083" lon="2.63765">
        <ele>207.3</ele>
        <time>2017-11-27T14:25:52Z</time>
      </trkpt>
      <trkpt lat="43.33077" lon="2.63764">
        <ele>206.34</ele>
        <time>2017-11-27T14:26:03Z</time>
      </trkpt>
      <trkpt lat="43.33069" lon="2.63762">
        <ele>204.9</ele>
        <time>2017-11-27T14:26:14Z</time>
      </trkpt>
      <trkpt lat="43.33068" lon="2.63762">
        <ele>205.38</ele>
        <time>2017-11-27T14:26:15Z</time>
      </trkpt>
      <trkpt lat="43.3306" lon="2.63763">
        <ele>203.94</ele>
        <time>2017-11-27T14:26:29Z</time>
      </trkpt>
      <trkpt lat="43.33059" lon="2.63765">
        <ele>203.94</ele>
        <time>2017-11-27T14:26:51Z</time>
      </trkpt>
      <trkpt lat="43.33057" lon="2.63767">
        <ele>203.94</ele>
        <time>2017-11-27T14:26:56Z</time>
      </trkpt>
      <trkpt lat="43.33054" lon="2.63772">
        <ele>205.38</ele>
        <time>2017-11-27T14:27:08Z</time>
      </trkpt>
      <trkpt lat="43.33051" lon="2.63777">
        <ele>205.86</ele>
        <time>2017-11-27T14:27:19Z</time>
      </trkpt>
      <trkpt lat="43.3305" lon="2.63778">
        <ele>205.86</ele>
        <time>2017-11-27T14:27:38Z</time>
      </trkpt>
      <trkpt lat="43.33049" lon="2.63778">
        <ele>204.9</ele>
        <time>2017-11-27T14:27:48Z</time>
      </trkpt>
      <trkpt lat="43.33052" lon="2.63776">
        <ele>204.9</ele>
        <time>2017-11-27T14:28:01Z</time>
      </trkpt>
      <trkpt lat="43.33053" lon="2.63775">
        <ele>204.42</ele>
        <time>2017-11-27T14:28:18Z</time>
      </trkpt>
      <trkpt lat="43.33054" lon="2.63774">
        <ele>204.42</ele>
        <time>2017-11-27T14:28:30Z</time>
      </trkpt>
      <trkpt lat="43.33054" lon="2.63772">
        <ele>200.57</ele>
        <time>2017-11-27T14:28:44Z</time>
      </trkpt>
      <trkpt lat="43.33054" lon="2.63772">
        <ele>205.86</ele>
        <time>2017-11-27T14:28:45Z</time>
      </trkpt>
      <trkpt lat="43.33054" lon="2.63772">
        <ele>201.05</ele>
        <time>2017-11-27T14:28:46Z</time>
      </trkpt>
      <trkpt lat="43.33054" lon="2.63772">
        <ele>204.9</ele>
        <time>2017-11-27T14:28:47Z</time>
      </trkpt>
      <trkpt lat="43.33054" lon="2.63772">
        <ele>203.94</ele>
        <time>2017-11-27T14:28:54Z</time>
      </trkpt>
      <trkpt lat="43.33054" lon="2.63772">
        <ele>204.42</ele>
        <time>2017-11-27T14:29:06Z</time>
      </trkpt>
      <trkpt lat="43.33055" lon="2.63773">
        <ele>204.42</ele>
        <time>2017-11-27T14:29:36Z</time>
      </trkpt>
      <trkpt lat="43.33056" lon="2.63774">
        <ele>204.42</ele>
        <time>2017-11-27T14:30:05Z</time>
      </trkpt>
      <trkpt lat="43.33055" lon="2.63773">
        <ele>203.94</ele>
        <time>2017-11-27T14:30:17Z</time>
      </trkpt>
      <trkpt lat="43.33055" lon="2.63772">
        <ele>203.46</ele>
        <time>2017-11-27T14:30:53Z</time>
      </trkpt>
      <trkpt lat="43.33054" lon="2.63772">
        <ele>203.46</ele>
        <time>2017-11-27T14:31:35Z</time>
      </trkpt>
      <trkpt lat="43.33054" lon="2.63772">
        <ele>203.94</ele>
        <time>2017-11-27T14:31:37Z</time>
      </trkpt>
      <trkpt lat="43.33053" lon="2.63774">
        <ele>204.42</ele>
        <time>2017-11-27T14:31:49Z</time>
      </trkpt>
      <trkpt lat="43.33054" lon="2.63773">
        <ele>203.94</ele>
        <time>2017-11-27T14:32:10Z</time>
      </trkpt>
      <trkpt lat="43.33054" lon="2.63771">
        <ele>203.46</ele>
        <time>2017-11-27T14:32:22Z</time>
      </trkpt>
      <trkpt lat="43.33052" lon="2.63769">
        <ele>202.98</ele>
        <time>2017-11-27T14:32:35Z</time>
      </trkpt>
      <trkpt lat="43.33051" lon="2.63769">
        <ele>202.49</ele>
        <time>2017-11-27T14:32:48Z</time>
      </trkpt>
      <trkpt lat="43.3305" lon="2.63769">
        <ele>202.49</ele>
        <time>2017-11-27T14:33:04Z</time>
      </trkpt>
      <trkpt lat="43.33043" lon="2.63772">
        <ele>201.05</ele>
        <time>2017-11-27T14:33:17Z</time>
      </trkpt>
      <trkpt lat="43.33041" lon="2.63772">
        <ele>201.05</ele>
        <time>2017-11-27T14:33:31Z</time>
      </trkpt>
      <trkpt lat="43.3304" lon="2.63772">
        <ele>201.05</ele>
        <time>2017-11-27T14:33:43Z</time>
      </trkpt>
      <trkpt lat="43.33034" lon="2.63775">
        <ele>200.09</ele>
        <time>2017-11-27T14:33:56Z</time>
      </trkpt>
      <trkpt lat="43.33026" lon="2.63776">
        <ele>199.13</ele>
        <time>2017-11-27T14:34:10Z</time>
      </trkpt>
      <trkpt lat="43.33015" lon="2.63779">
        <ele>198.17</ele>
        <time>2017-11-27T14:34:23Z</time>
      </trkpt>
      <trkpt lat="43.3301" lon="2.63781">
        <ele>197.69</ele>
        <time>2017-11-27T14:34:36Z</time>
      </trkpt>
      <trkpt lat="43.33007" lon="2.63779">
        <ele>195.77</ele>
        <time>2017-11-27T14:34:48Z</time>
      </trkpt>
      <trkpt lat="43.33003" lon="2.63774">
        <ele>194.8</ele>
        <time>2017-11-27T14:34:58Z</time>
      </trkpt>
      <trkpt lat="43.32999" lon="2.6377">
        <ele>194.32</ele>
        <time>2017-11-27T14:35:06Z</time>
      </trkpt>
      <trkpt lat="43.32995" lon="2.63767">
        <ele>193.36</ele>
        <time>2017-11-27T14:35:12Z</time>
      </trkpt>
      <trkpt lat="43.32986" lon="2.63766">
        <ele>192.4</ele>
        <time>2017-11-27T14:35:24Z</time>
      </trkpt>
      <trkpt lat="43.32977" lon="2.63765">
        <ele>191.44</ele>
        <time>2017-11-27T14:35:35Z</time>
      </trkpt>
      <trkpt lat="43.32969" lon="2.63764">
        <ele>190.96</ele>
        <time>2017-11-27T14:35:44Z</time>
      </trkpt>
      <trkpt lat="43.32967" lon="2.63765">
        <ele>190.48</ele>
        <time>2017-11-27T14:35:46Z</time>
      </trkpt>
      <trkpt lat="43.32956" lon="2.63765">
        <ele>190</ele>
        <time>2017-11-27T14:35:57Z</time>
      </trkpt>
      <trkpt lat="43.32945" lon="2.63768">
        <ele>189.52</ele>
        <time>2017-11-27T14:36:07Z</time>
      </trkpt>
      <trkpt lat="43.3294" lon="2.6377">
        <ele>190</ele>
        <time>2017-11-27T14:36:14Z</time>
      </trkpt>
      <trkpt lat="43.32935" lon="2.63773">
        <ele>189.52</ele>
        <time>2017-11-27T14:36:21Z</time>
      </trkpt>
      <trkpt lat="43.32931" lon="2.63775">
        <ele>188.56</ele>
        <time>2017-11-27T14:36:25Z</time>
      </trkpt>
      <trkpt lat="43.32927" lon="2.63777">
        <ele>188.08</ele>
        <time>2017-11-27T14:36:29Z</time>
      </trkpt>
      <trkpt lat="43.32911" lon="2.6379">
        <ele>186.15</ele>
        <time>2017-11-27T14:36:45Z</time>
      </trkpt>
      <trkpt lat="43.32909" lon="2.63792">
        <ele>185.19</ele>
        <time>2017-11-27T14:36:48Z</time>
      </trkpt>
      <trkpt lat="43.32898" lon="2.63798">
        <ele>184.71</ele>
        <time>2017-11-27T14:36:58Z</time>
      </trkpt>
      <trkpt lat="43.32894" lon="2.638">
        <ele>184.23</ele>
        <time>2017-11-27T14:37:03Z</time>
      </trkpt>
      <trkpt lat="43.32882" lon="2.63801">
        <ele>184.23</ele>
        <time>2017-11-27T14:37:14Z</time>
      </trkpt>
      <trkpt lat="43.32878" lon="2.63801">
        <ele>183.75</ele>
        <time>2017-11-27T14:37:19Z</time>
      </trkpt>
      <trkpt lat="43.32862" lon="2.63803">
        <ele>183.27</ele>
        <time>2017-11-27T14:37:33Z</time>
      </trkpt>
      <trkpt lat="43.32857" lon="2.63805">
        <ele>183.27</ele>
        <time>2017-11-27T14:37:38Z</time>
      </trkpt>
      <trkpt lat="43.32853" lon="2.63806">
        <ele>183.27</ele>
        <time>2017-11-27T14:37:41Z</time>
      </trkpt>
      <trkpt lat="43.32848" lon="2.63807">
        <ele>183.75</ele>
        <time>2017-11-27T14:37:44Z</time>
      </trkpt>
      <trkpt lat="43.32844" lon="2.63809">
        <ele>184.23</ele>
        <time>2017-11-27T14:37:47Z</time>
      </trkpt>
      <trkpt lat="43.3284" lon="2.63811">
        <ele>184.23</ele>
        <time>2017-11-27T14:37:50Z</time>
      </trkpt>
      <trkpt lat="43.32832" lon="2.63815">
        <ele>184.23</ele>
        <time>2017-11-27T14:37:57Z</time>
      </trkpt>
      <trkpt lat="43.32815" lon="2.63823">
        <ele>185.67</ele>
        <time>2017-11-27T14:38:11Z</time>
      </trkpt>
      <trkpt lat="43.32806" lon="2.63824">
        <ele>185.67</ele>
        <time>2017-11-27T14:38:19Z</time>
      </trkpt>
      <trkpt lat="43.32801" lon="2.63824">
        <ele>185.67</ele>
        <time>2017-11-27T14:38:25Z</time>
      </trkpt>
      <trkpt lat="43.32783" lon="2.63821">
        <ele>187.11</ele>
        <time>2017-11-27T14:38:40Z</time>
      </trkpt>
      <trkpt lat="43.32764" lon="2.63828">
        <ele>186.63</ele>
        <time>2017-11-27T14:38:56Z</time>
      </trkpt>
      <trkpt lat="43.3275" lon="2.6384">
        <ele>186.15</ele>
        <time>2017-11-27T14:39:10Z</time>
      </trkpt>
      <trkpt lat="43.32746" lon="2.63845">
        <ele>186.63</ele>
        <time>2017-11-27T14:39:14Z</time>
      </trkpt>
      <trkpt lat="43.32732" lon="2.63861">
        <ele>186.63</ele>
        <time>2017-11-27T14:39:30Z</time>
      </trkpt>
      <trkpt lat="43.32719" lon="2.63876">
        <ele>185.19</ele>
        <time>2017-11-27T14:39:45Z</time>
      </trkpt>
      <trkpt lat="43.32703" lon="2.63884">
        <ele>183.27</ele>
        <time>2017-11-27T14:39:59Z</time>
      </trkpt>
      <trkpt lat="43.32695" lon="2.63899">
        <ele>182.31</ele>
        <time>2017-11-27T14:40:12Z</time>
      </trkpt>
      <trkpt lat="43.32694" lon="2.63903">
        <ele>182.31</ele>
        <time>2017-11-27T14:40:16Z</time>
      </trkpt>
      <trkpt lat="43.32691" lon="2.63921">
        <ele>181.83</ele>
        <time>2017-11-27T14:40:28Z</time>
      </trkpt>
      <trkpt lat="43.32686" lon="2.63938">
        <ele>179.9</ele>
        <time>2017-11-27T14:40:40Z</time>
      </trkpt>
      <trkpt lat="43.32683" lon="2.63946">
        <ele>179.9</ele>
        <time>2017-11-27T14:40:46Z</time>
      </trkpt>
      <trkpt lat="43.32678" lon="2.6396">
        <ele>177.98</ele>
        <time>2017-11-27T14:40:57Z</time>
      </trkpt>
      <trkpt lat="43.32664" lon="2.63978">
        <ele>177.02</ele>
        <time>2017-11-27T14:41:13Z</time>
      </trkpt>
      <trkpt lat="43.32661" lon="2.63981">
        <ele>177.02</ele>
        <time>2017-11-27T14:41:17Z</time>
      </trkpt>
      <trkpt lat="43.32659" lon="2.63983">
        <ele>176.54</ele>
        <time>2017-11-27T14:41:19Z</time>
      </trkpt>
      <trkpt lat="43.32648" lon="2.63993">
        <ele>175.1</ele>
        <time>2017-11-27T14:41:31Z</time>
      </trkpt>
      <trkpt lat="43.32646" lon="2.63994">
        <ele>175.1</ele>
        <time>2017-11-27T14:41:33Z</time>
      </trkpt>
      <trkpt lat="43.32638" lon="2.63998">
        <ele>174.14</ele>
        <time>2017-11-27T14:41:41Z</time>
      </trkpt>
      <trkpt lat="43.32626" lon="2.63995">
        <ele>173.17</ele>
        <time>2017-11-27T14:41:53Z</time>
      </trkpt>
      <trkpt lat="43.32625" lon="2.63994">
        <ele>173.17</ele>
        <time>2017-11-27T14:41:54Z</time>
      </trkpt>
      <trkpt lat="43.32622" lon="2.63996">
        <ele>172.69</ele>
        <time>2017-11-27T14:41:57Z</time>
      </trkpt>
      <trkpt lat="43.32612" lon="2.64001">
        <ele>171.73</ele>
        <time>2017-11-27T14:42:07Z</time>
      </trkpt>
      <trkpt lat="43.32606" lon="2.64003">
        <ele>171.25</ele>
        <time>2017-11-27T14:42:12Z</time>
      </trkpt>
      <trkpt lat="43.32602" lon="2.64008">
        <ele>170.29</ele>
        <time>2017-11-27T14:42:17Z</time>
      </trkpt>
      <trkpt lat="43.32593" lon="2.64017">
        <ele>169.33</ele>
        <time>2017-11-27T14:42:27Z</time>
      </trkpt>
      <trkpt lat="43.32589" lon="2.64019">
        <ele>168.85</ele>
        <time>2017-11-27T14:42:31Z</time>
      </trkpt>
      <trkpt lat="43.32583" lon="2.64023">
        <ele>168.37</ele>
        <time>2017-11-27T14:42:36Z</time>
      </trkpt>
      <trkpt lat="43.32578" lon="2.64024">
        <ele>167.89</ele>
        <time>2017-11-27T14:42:41Z</time>
      </trkpt>
      <trkpt lat="43.32566" lon="2.64035">
        <ele>166.45</ele>
        <time>2017-11-27T14:42:56Z</time>
      </trkpt>
      <trkpt lat="43.32558" lon="2.64046">
        <ele>165.48</ele>
        <time>2017-11-27T14:43:06Z</time>
      </trkpt>
      <trkpt lat="43.32556" lon="2.64051">
        <ele>164.52</ele>
        <time>2017-11-27T14:43:10Z</time>
      </trkpt>
      <trkpt lat="43.32547" lon="2.64065">
        <ele>164.04</ele>
        <time>2017-11-27T14:43:22Z</time>
      </trkpt>
      <trkpt lat="43.32543" lon="2.64071">
        <ele>164.04</ele>
        <time>2017-11-27T14:43:27Z</time>
      </trkpt>
      <trkpt lat="43.32541" lon="2.64073">
        <ele>163.08</ele>
        <time>2017-11-27T14:43:30Z</time>
      </trkpt>
      <trkpt lat="43.32531" lon="2.64082">
        <ele>161.64</ele>
        <time>2017-11-27T14:43:42Z</time>
      </trkpt>
      <trkpt lat="43.3252" lon="2.64092">
        <ele>160.68</ele>
        <time>2017-11-27T14:43:54Z</time>
      </trkpt>
      <trkpt lat="43.32519" lon="2.64093">
        <ele>161.16</ele>
        <time>2017-11-27T14:43:55Z</time>
      </trkpt>
      <trkpt lat="43.32514" lon="2.64098">
        <ele>160.68</ele>
        <time>2017-11-27T14:44:01Z</time>
      </trkpt>
      <trkpt lat="43.32508" lon="2.64104">
        <ele>159.72</ele>
        <time>2017-11-27T14:44:08Z</time>
      </trkpt>
      <trkpt lat="43.32497" lon="2.64108">
        <ele>159.24</ele>
        <time>2017-11-27T14:44:17Z</time>
      </trkpt>
      <trkpt lat="43.32489" lon="2.64109">
        <ele>157.79</ele>
        <time>2017-11-27T14:44:25Z</time>
      </trkpt>
      <trkpt lat="43.32475" lon="2.64108">
        <ele>155.87</ele>
        <time>2017-11-27T14:44:40Z</time>
      </trkpt>
      <trkpt lat="43.32464" lon="2.64109">
        <ele>154.91</ele>
        <time>2017-11-27T14:44:51Z</time>
      </trkpt>
      <trkpt lat="43.32449" lon="2.64111">
        <ele>153.95</ele>
        <time>2017-11-27T14:45:05Z</time>
      </trkpt>
      <trkpt lat="43.32442" lon="2.64113">
        <ele>152.99</ele>
        <time>2017-11-27T14:45:11Z</time>
      </trkpt>
      <trkpt lat="43.3243" lon="2.64116">
        <ele>152.99</ele>
        <time>2017-11-27T14:45:24Z</time>
      </trkpt>
      <trkpt lat="43.32431" lon="2.64124">
        <ele>152.51</ele>
        <time>2017-11-27T14:45:34Z</time>
      </trkpt>
      <trkpt lat="43.32433" lon="2.64127">
        <ele>152.03</ele>
        <time>2017-11-27T14:45:37Z</time>
      </trkpt>
      <trkpt lat="43.32437" lon="2.64135">
        <ele>151.54</ele>
        <time>2017-11-27T14:45:47Z</time>
      </trkpt>
      <trkpt lat="43.32438" lon="2.64138">
        <ele>151.06</ele>
        <time>2017-11-27T14:45:50Z</time>
      </trkpt>
      <trkpt lat="43.32441" lon="2.64143">
        <ele>151.06</ele>
        <time>2017-11-27T14:45:54Z</time>
      </trkpt>
      <trkpt lat="43.32444" lon="2.64147">
        <ele>151.06</ele>
        <time>2017-11-27T14:45:59Z</time>
      </trkpt>
      <trkpt lat="43.32453" lon="2.64159">
        <ele>150.1</ele>
        <time>2017-11-27T14:46:12Z</time>
      </trkpt>
      <trkpt lat="43.32456" lon="2.64163">
        <ele>150.1</ele>
        <time>2017-11-27T14:46:17Z</time>
      </trkpt>
      <trkpt lat="43.32461" lon="2.64172">
        <ele>149.14</ele>
        <time>2017-11-27T14:46:24Z</time>
      </trkpt>
      <trkpt lat="43.32465" lon="2.64179">
        <ele>149.14</ele>
        <time>2017-11-27T14:46:31Z</time>
      </trkpt>
      <trkpt lat="43.32467" lon="2.64184">
        <ele>149.14</ele>
        <time>2017-11-27T14:46:35Z</time>
      </trkpt>
      <trkpt lat="43.32473" lon="2.64195">
        <ele>148.66</ele>
        <time>2017-11-27T14:46:44Z</time>
      </trkpt>
      <trkpt lat="43.32476" lon="2.64202">
        <ele>149.14</ele>
        <time>2017-11-27T14:46:51Z</time>
      </trkpt>
      <trkpt lat="43.3248" lon="2.6421">
        <ele>149.14</ele>
        <time>2017-11-27T14:46:57Z</time>
      </trkpt>
      <trkpt lat="43.32481" lon="2.64214">
        <ele>148.66</ele>
        <time>2017-11-27T14:47:00Z</time>
      </trkpt>
      <trkpt lat="43.32485" lon="2.64231">
        <ele>148.66</ele>
        <time>2017-11-27T14:47:13Z</time>
      </trkpt>
      <trkpt lat="43.32486" lon="2.64241">
        <ele>148.66</ele>
        <time>2017-11-27T14:47:19Z</time>
      </trkpt>
      <trkpt lat="43.32486" lon="2.64247">
        <ele>148.18</ele>
        <time>2017-11-27T14:47:23Z</time>
      </trkpt>
      <trkpt lat="43.32487" lon="2.6425">
        <ele>148.18</ele>
        <time>2017-11-27T14:47:25Z</time>
      </trkpt>
      <trkpt lat="43.32488" lon="2.64263">
        <ele>148.18</ele>
        <time>2017-11-27T14:47:33Z</time>
      </trkpt>
      <trkpt lat="43.32483" lon="2.64287">
        <ele>147.7</ele>
        <time>2017-11-27T14:47:48Z</time>
      </trkpt>
      <trkpt lat="43.32479" lon="2.64297">
        <ele>147.22</ele>
        <time>2017-11-27T14:47:55Z</time>
      </trkpt>
      <trkpt lat="43.32466" lon="2.64313">
        <ele>147.7</ele>
        <time>2017-11-27T14:48:09Z</time>
      </trkpt>
      <trkpt lat="43.3246" lon="2.64322">
        <ele>148.18</ele>
        <time>2017-11-27T14:48:17Z</time>
      </trkpt>
      <trkpt lat="43.32447" lon="2.6433">
        <ele>148.66</ele>
        <time>2017-11-27T14:48:31Z</time>
      </trkpt>
      <trkpt lat="43.32444" lon="2.64333">
        <ele>149.14</ele>
        <time>2017-11-27T14:48:34Z</time>
      </trkpt>
      <trkpt lat="43.32437" lon="2.64336">
        <ele>149.62</ele>
        <time>2017-11-27T14:48:42Z</time>
      </trkpt>
      <trkpt lat="43.32435" lon="2.64338">
        <ele>149.62</ele>
        <time>2017-11-27T14:48:44Z</time>
      </trkpt>
      <trkpt lat="43.3243" lon="2.6434">
        <ele>149.62</ele>
        <time>2017-11-27T14:48:49Z</time>
      </trkpt>
      <trkpt lat="43.32416" lon="2.64346">
        <ele>151.54</ele>
        <time>2017-11-27T14:49:04Z</time>
      </trkpt>
      <trkpt lat="43.32405" lon="2.64356">
        <ele>152.03</ele>
        <time>2017-11-27T14:49:17Z</time>
      </trkpt>
      <trkpt lat="43.324" lon="2.64366">
        <ele>152.03</ele>
        <time>2017-11-27T14:49:26Z</time>
      </trkpt>
      <trkpt lat="43.32396" lon="2.64372">
        <ele>151.06</ele>
        <time>2017-11-27T14:49:32Z</time>
      </trkpt>
      <trkpt lat="43.32387" lon="2.64391">
        <ele>151.54</ele>
        <time>2017-11-27T14:49:46Z</time>
      </trkpt>
      <trkpt lat="43.3238" lon="2.64405">
        <ele>150.1</ele>
        <time>2017-11-27T14:49:58Z</time>
      </trkpt>
      <trkpt lat="43.3238" lon="2.64409">
        <ele>150.1</ele>
        <time>2017-11-27T14:50:11Z</time>
      </trkpt>
      <trkpt lat="43.32378" lon="2.64413">
        <ele>149.62</ele>
        <time>2017-11-27T14:50:16Z</time>
      </trkpt>
      <trkpt lat="43.32373" lon="2.64424">
        <ele>149.14</ele>
        <time>2017-11-27T14:50:28Z</time>
      </trkpt>
      <trkpt lat="43.32372" lon="2.64426">
        <ele>148.66</ele>
        <time>2017-11-27T14:50:30Z</time>
      </trkpt>
      <trkpt lat="43.32368" lon="2.64438">
        <ele>147.7</ele>
        <time>2017-11-27T14:50:41Z</time>
      </trkpt>
      <trkpt lat="43.32367" lon="2.64439">
        <ele>147.22</ele>
        <time>2017-11-27T14:50:42Z</time>
      </trkpt>
      <trkpt lat="43.32366" lon="2.64445">
        <ele>147.22</ele>
        <time>2017-11-27T14:50:47Z</time>
      </trkpt>
      <trkpt lat="43.32364" lon="2.64454">
        <ele>146.26</ele>
        <time>2017-11-27T14:50:55Z</time>
      </trkpt>
      <trkpt lat="43.32361" lon="2.64465">
        <ele>145.3</ele>
        <time>2017-11-27T14:51:08Z</time>
      </trkpt>
      <trkpt lat="43.32358" lon="2.64475">
        <ele>144.82</ele>
        <time>2017-11-27T14:51:19Z</time>
      </trkpt>
      <trkpt lat="43.32358" lon="2.64477">
        <ele>144.82</ele>
        <time>2017-11-27T14:51:37Z</time>
      </trkpt>
      <trkpt lat="43.32359" lon="2.6448">
        <ele>144.82</ele>
        <time>2017-11-27T14:51:56Z</time>
      </trkpt>
      <trkpt lat="43.3236" lon="2.64483">
        <ele>144.34</ele>
        <time>2017-11-27T14:51:59Z</time>
      </trkpt>
      <trkpt lat="43.32359" lon="2.64488">
        <ele>144.82</ele>
        <time>2017-11-27T14:52:09Z</time>
      </trkpt>
      <trkpt lat="43.32361" lon="2.64493">
        <ele>143.85</ele>
        <time>2017-11-27T14:52:20Z</time>
      </trkpt>
      <trkpt lat="43.32365" lon="2.64497">
        <ele>143.37</ele>
        <time>2017-11-27T14:52:26Z</time>
      </trkpt>
      <trkpt lat="43.32368" lon="2.64501">
        <ele>142.89</ele>
        <time>2017-11-27T14:52:29Z</time>
      </trkpt>
      <trkpt lat="43.3237" lon="2.64504">
        <ele>142.89</ele>
        <time>2017-11-27T14:52:32Z</time>
      </trkpt>
      <trkpt lat="43.32378" lon="2.64512">
        <ele>142.41</ele>
        <time>2017-11-27T14:52:40Z</time>
      </trkpt>
      <trkpt lat="43.32381" lon="2.64513">
        <ele>141.93</ele>
        <time>2017-11-27T14:52:43Z</time>
      </trkpt>
      <trkpt lat="43.32383" lon="2.64514">
        <ele>141.45</ele>
        <time>2017-11-27T14:52:57Z</time>
      </trkpt>
      <trkpt lat="43.32384" lon="2.64514">
        <ele>141.45</ele>
        <time>2017-11-27T14:53:22Z</time>
      </trkpt>
      <trkpt lat="43.3239" lon="2.64518">
        <ele>140.97</ele>
        <time>2017-11-27T14:53:28Z</time>
      </trkpt>
      <trkpt lat="43.32393" lon="2.64519">
        <ele>140.97</ele>
        <time>2017-11-27T14:53:30Z</time>
      </trkpt>
      <trkpt lat="43.32398" lon="2.64524">
        <ele>140.97</ele>
        <time>2017-11-27T14:53:36Z</time>
      </trkpt>
      <trkpt lat="43.3241" lon="2.64533">
        <ele>140.01</ele>
        <time>2017-11-27T14:53:47Z</time>
      </trkpt>
      <trkpt lat="43.32414" lon="2.64535">
        <ele>139.53</ele>
        <time>2017-11-27T14:53:50Z</time>
      </trkpt>
      <trkpt lat="43.32415" lon="2.64538">
        <ele>139.53</ele>
        <time>2017-11-27T14:53:52Z</time>
      </trkpt>
      <trkpt lat="43.32416" lon="2.64541">
        <ele>139.53</ele>
        <time>2017-11-27T14:53:54Z</time>
      </trkpt>
      <trkpt lat="43.32411" lon="2.64565">
        <ele>139.05</ele>
        <time>2017-11-27T14:54:08Z</time>
      </trkpt>
      <trkpt lat="43.32401" lon="2.64586">
        <ele>138.09</ele>
        <time>2017-11-27T14:54:22Z</time>
      </trkpt>
      <trkpt lat="43.32399" lon="2.64589">
        <ele>138.57</ele>
        <time>2017-11-27T14:54:24Z</time>
      </trkpt>
      <trkpt lat="43.32384" lon="2.64607">
        <ele>138.57</ele>
        <time>2017-11-27T14:54:39Z</time>
      </trkpt>
      <trkpt lat="43.32373" lon="2.64621">
        <ele>138.09</ele>
        <time>2017-11-27T14:54:50Z</time>
      </trkpt>
      <trkpt lat="43.32361" lon="2.64639">
        <ele>138.09</ele>
        <time>2017-11-27T14:55:04Z</time>
      </trkpt>
      <trkpt lat="43.3236" lon="2.64643">
        <ele>137.61</ele>
        <time>2017-11-27T14:55:07Z</time>
      </trkpt>
      <trkpt lat="43.3235" lon="2.64661">
        <ele>137.13</ele>
        <time>2017-11-27T14:55:21Z</time>
      </trkpt>
      <trkpt lat="43.32346" lon="2.64664">
        <ele>136.64</ele>
        <time>2017-11-27T14:55:25Z</time>
      </trkpt>
      <trkpt lat="43.3234" lon="2.64672">
        <ele>136.16</ele>
        <time>2017-11-27T14:55:32Z</time>
      </trkpt>
      <trkpt lat="43.32331" lon="2.64689">
        <ele>136.16</ele>
        <time>2017-11-27T14:55:45Z</time>
      </trkpt>
      <trkpt lat="43.32326" lon="2.64696">
        <ele>135.68</ele>
        <time>2017-11-27T14:55:51Z</time>
      </trkpt>
      <trkpt lat="43.32321" lon="2.64699">
        <ele>135.68</ele>
        <time>2017-11-27T14:55:55Z</time>
      </trkpt>
      <trkpt lat="43.32311" lon="2.64711">
        <ele>135.2</ele>
        <time>2017-11-27T14:56:07Z</time>
      </trkpt>
      <trkpt lat="43.32308" lon="2.64714">
        <ele>134.24</ele>
        <time>2017-11-27T14:56:12Z</time>
      </trkpt>
      <trkpt lat="43.32304" lon="2.64717">
        <ele>133.76</ele>
        <time>2017-11-27T14:56:24Z</time>
      </trkpt>
      <trkpt lat="43.32302" lon="2.64722">
        <ele>133.76</ele>
        <time>2017-11-27T14:56:35Z</time>
      </trkpt>
      <trkpt lat="43.32304" lon="2.64727">
        <ele>134.24</ele>
        <time>2017-11-27T14:56:45Z</time>
      </trkpt>
      <trkpt lat="43.32306" lon="2.6473">
        <ele>135.2</ele>
        <time>2017-11-27T14:56:49Z</time>
      </trkpt>
      <trkpt lat="43.32313" lon="2.64734">
        <ele>135.68</ele>
        <time>2017-11-27T14:56:59Z</time>
      </trkpt>
      <trkpt lat="43.32317" lon="2.64731">
        <ele>135.2</ele>
        <time>2017-11-27T14:57:02Z</time>
      </trkpt>
      <trkpt lat="43.32329" lon="2.64725">
        <ele>135.68</ele>
        <time>2017-11-27T14:57:15Z</time>
      </trkpt>
      <trkpt lat="43.32336" lon="2.64723">
        <ele>136.16</ele>
        <time>2017-11-27T14:57:22Z</time>
      </trkpt>
      <trkpt lat="43.32341" lon="2.64721">
        <ele>136.16</ele>
        <time>2017-11-27T14:57:29Z</time>
      </trkpt>
      <trkpt lat="43.32344" lon="2.64721">
        <ele>136.16</ele>
        <time>2017-11-27T14:57:32Z</time>
      </trkpt>
      <trkpt lat="43.32359" lon="2.64717">
        <ele>136.16</ele>
        <time>2017-11-27T14:57:45Z</time>
      </trkpt>
      <trkpt lat="43.32364" lon="2.64717">
        <ele>136.16</ele>
        <time>2017-11-27T14:57:49Z</time>
      </trkpt>
      <trkpt lat="43.32379" lon="2.64714">
        <ele>137.13</ele>
        <time>2017-11-27T14:58:03Z</time>
      </trkpt>
      <trkpt lat="43.32391" lon="2.64711">
        <ele>137.13</ele>
        <time>2017-11-27T14:58:15Z</time>
      </trkpt>
      <trkpt lat="43.32407" lon="2.64707">
        <ele>137.61</ele>
        <time>2017-11-27T14:58:30Z</time>
      </trkpt>
      <trkpt lat="43.32413" lon="2.64706">
        <ele>137.61</ele>
        <time>2017-11-27T14:58:37Z</time>
      </trkpt>
      <trkpt lat="43.3242" lon="2.64703">
        <ele>137.61</ele>
        <time>2017-11-27T14:58:43Z</time>
      </trkpt>
      <trkpt lat="43.32423" lon="2.64703">
        <ele>138.09</ele>
        <time>2017-11-27T14:58:46Z</time>
      </trkpt>
      <trkpt lat="43.32436" lon="2.64695">
        <ele>138.09</ele>
        <time>2017-11-27T14:59:00Z</time>
      </trkpt>
      <trkpt lat="43.32449" lon="2.64688">
        <ele>138.57</ele>
        <time>2017-11-27T14:59:14Z</time>
      </trkpt>
      <trkpt lat="43.32454" lon="2.64685">
        <ele>138.57</ele>
        <time>2017-11-27T14:59:19Z</time>
      </trkpt>
      <trkpt lat="43.32459" lon="2.64682">
        <ele>139.53</ele>
        <time>2017-11-27T14:59:24Z</time>
      </trkpt>
      <trkpt lat="43.32475" lon="2.64673">
        <ele>139.05</ele>
        <time>2017-11-27T14:59:40Z</time>
      </trkpt>
      <trkpt lat="43.3249" lon="2.64663">
        <ele>140.01</ele>
        <time>2017-11-27T14:59:55Z</time>
      </trkpt>
      <trkpt lat="43.32505" lon="2.64655">
        <ele>140.97</ele>
        <time>2017-11-27T15:00:09Z</time>
      </trkpt>
      <trkpt lat="43.32508" lon="2.64654">
        <ele>140.97</ele>
        <time>2017-11-27T15:00:13Z</time>
      </trkpt>
      <trkpt lat="43.32522" lon="2.64648">
        <ele>142.41</ele>
        <time>2017-11-27T15:00:26Z</time>
      </trkpt>
      <trkpt lat="43.32535" lon="2.64639">
        <ele>144.82</ele>
        <time>2017-11-27T15:00:40Z</time>
      </trkpt>
      <trkpt lat="43.32546" lon="2.64627">
        <ele>145.78</ele>
        <time>2017-11-27T15:00:54Z</time>
      </trkpt>
      <trkpt lat="43.32557" lon="2.64616">
        <ele>147.7</ele>
        <time>2017-11-27T15:01:07Z</time>
      </trkpt>
      <trkpt lat="43.32569" lon="2.64606">
        <ele>149.14</ele>
        <time>2017-11-27T15:01:21Z</time>
      </trkpt>
      <trkpt lat="43.32582" lon="2.64594">
        <ele>150.58</ele>
        <time>2017-11-27T15:01:36Z</time>
      </trkpt>
      <trkpt lat="43.32595" lon="2.64584">
        <ele>151.54</ele>
        <time>2017-11-27T15:01:49Z</time>
      </trkpt>
      <trkpt lat="43.32601" lon="2.64579">
        <ele>152.51</ele>
        <time>2017-11-27T15:01:55Z</time>
      </trkpt>
      <trkpt lat="43.32609" lon="2.64574">
        <ele>152.99</ele>
        <time>2017-11-27T15:02:02Z</time>
      </trkpt>
      <trkpt lat="43.32622" lon="2.64563">
        <ele>153.95</ele>
        <time>2017-11-27T15:02:17Z</time>
      </trkpt>
      <trkpt lat="43.32634" lon="2.64553">
        <ele>155.87</ele>
        <time>2017-11-27T15:02:31Z</time>
      </trkpt>
      <trkpt lat="43.32645" lon="2.6454">
        <ele>157.79</ele>
        <time>2017-11-27T15:02:46Z</time>
      </trkpt>
      <trkpt lat="43.32646" lon="2.64539">
        <ele>157.79</ele>
        <time>2017-11-27T15:02:47Z</time>
      </trkpt>
      <trkpt lat="43.32659" lon="2.64525">
        <ele>158.75</ele>
        <time>2017-11-27T15:03:03Z</time>
      </trkpt>
      <trkpt lat="43.32668" lon="2.64519">
        <ele>159.24</ele>
        <time>2017-11-27T15:03:12Z</time>
      </trkpt>
      <trkpt lat="43.32686" lon="2.64515">
        <ele>159.72</ele>
        <time>2017-11-27T15:03:28Z</time>
      </trkpt>
      <trkpt lat="43.32695" lon="2.64519">
        <ele>161.16</ele>
        <time>2017-11-27T15:03:38Z</time>
      </trkpt>
      <trkpt lat="43.32708" lon="2.64529">
        <ele>162.12</ele>
        <time>2017-11-27T15:03:53Z</time>
      </trkpt>
      <trkpt lat="43.32711" lon="2.64531">
        <ele>162.6</ele>
        <time>2017-11-27T15:03:56Z</time>
      </trkpt>
      <trkpt lat="43.32716" lon="2.64535">
        <ele>162.12</ele>
        <time>2017-11-27T15:04:01Z</time>
      </trkpt>
      <trkpt lat="43.32718" lon="2.64536">
        <ele>161.64</ele>
        <time>2017-11-27T15:04:03Z</time>
      </trkpt>
      <trkpt lat="43.32725" lon="2.64553">
        <ele>161.64</ele>
        <time>2017-11-27T15:04:17Z</time>
      </trkpt>
      <trkpt lat="43.3273" lon="2.64569">
        <ele>163.08</ele>
        <time>2017-11-27T15:04:30Z</time>
      </trkpt>
      <trkpt lat="43.32738" lon="2.64581">
        <ele>164.52</ele>
        <time>2017-11-27T15:04:41Z</time>
      </trkpt>
      <trkpt lat="43.32749" lon="2.64594">
        <ele>165</ele>
        <time>2017-11-27T15:04:54Z</time>
      </trkpt>
      <trkpt lat="43.32751" lon="2.64596">
        <ele>165.48</ele>
        <time>2017-11-27T15:04:56Z</time>
      </trkpt>
      <trkpt lat="43.32764" lon="2.64611">
        <ele>165.96</ele>
        <time>2017-11-27T15:05:11Z</time>
      </trkpt>
      <trkpt lat="43.32771" lon="2.64616">
        <ele>166.45</ele>
        <time>2017-11-27T15:05:18Z</time>
      </trkpt>
      <trkpt lat="43.32774" lon="2.64618">
        <ele>166.45</ele>
        <time>2017-11-27T15:05:21Z</time>
      </trkpt>
      <trkpt lat="43.32777" lon="2.6462">
        <ele>166.45</ele>
        <time>2017-11-27T15:05:24Z</time>
      </trkpt>
      <trkpt lat="43.32779" lon="2.6462">
        <ele>166.93</ele>
        <time>2017-11-27T15:05:26Z</time>
      </trkpt>
      <trkpt lat="43.32783" lon="2.64622">
        <ele>167.41</ele>
        <time>2017-11-27T15:05:30Z</time>
      </trkpt>
      <trkpt lat="43.32797" lon="2.64617">
        <ele>167.89</ele>
        <time>2017-11-27T15:05:44Z</time>
      </trkpt>
      <trkpt lat="43.32801" lon="2.64613">
        <ele>168.37</ele>
        <time>2017-11-27T15:05:49Z</time>
      </trkpt>
      <trkpt lat="43.32812" lon="2.64602">
        <ele>169.81</ele>
        <time>2017-11-27T15:06:02Z</time>
      </trkpt>
      <trkpt lat="43.32816" lon="2.64598">
        <ele>169.81</ele>
        <time>2017-11-27T15:06:07Z</time>
      </trkpt>
      <trkpt lat="43.3283" lon="2.64605">
        <ele>170.29</ele>
        <time>2017-11-27T15:06:22Z</time>
      </trkpt>
      <trkpt lat="43.32841" lon="2.6462">
        <ele>170.77</ele>
        <time>2017-11-27T15:06:37Z</time>
      </trkpt>
      <trkpt lat="43.32854" lon="2.6463">
        <ele>170.29</ele>
        <time>2017-11-27T15:06:50Z</time>
      </trkpt>
      <trkpt lat="43.32872" lon="2.64633">
        <ele>172.21</ele>
        <time>2017-11-27T15:07:05Z</time>
      </trkpt>
      <trkpt lat="43.32883" lon="2.64621">
        <ele>173.66</ele>
        <time>2017-11-27T15:07:17Z</time>
      </trkpt>
      <trkpt lat="43.32891" lon="2.64617">
        <ele>175.58</ele>
        <time>2017-11-27T15:07:28Z</time>
      </trkpt>
      <trkpt lat="43.32906" lon="2.64609">
        <ele>177.02</ele>
        <time>2017-11-27T15:07:42Z</time>
      </trkpt>
      <trkpt lat="43.3292" lon="2.64606">
        <ele>178.94</ele>
        <time>2017-11-27T15:07:57Z</time>
      </trkpt>
      <trkpt lat="43.32922" lon="2.64601">
        <ele>178.94</ele>
        <time>2017-11-27T15:08:12Z</time>
      </trkpt>
      <trkpt lat="43.32922" lon="2.64598">
        <ele>178.94</ele>
        <time>2017-11-27T15:08:26Z</time>
      </trkpt>
      <trkpt lat="43.32921" lon="2.64601">
        <ele>178.46</ele>
        <time>2017-11-27T15:08:48Z</time>
      </trkpt>
      <trkpt lat="43.3292" lon="2.64602">
        <ele>178.46</ele>
        <time>2017-11-27T15:08:57Z</time>
      </trkpt>
      <trkpt lat="43.3292" lon="2.64602">
        <ele>178.94</ele>
        <time>2017-11-27T15:09:08Z</time>
      </trkpt>
      <trkpt lat="43.3292" lon="2.64602">
        <ele>178.46</ele>
        <time>2017-11-27T15:09:24Z</time>
      </trkpt>
      <trkpt lat="43.32921" lon="2.64604">
        <ele>165</ele>
        <time>2017-11-27T15:09:33Z</time>
      </trkpt>
      <trkpt lat="43.32921" lon="2.64604">
        <ele>180.87</ele>
        <time>2017-11-27T15:09:34Z</time>
      </trkpt>
      <trkpt lat="43.32921" lon="2.64605">
        <ele>178.46</ele>
        <time>2017-11-27T15:09:49Z</time>
      </trkpt>
      <trkpt lat="43.32921" lon="2.64606">
        <ele>178.94</ele>
        <time>2017-11-27T15:10:08Z</time>
      </trkpt>
      <trkpt lat="43.32922" lon="2.64605">
        <ele>178.94</ele>
        <time>2017-11-27T15:10:37Z</time>
      </trkpt>
      <trkpt lat="43.32922" lon="2.64606">
        <ele>178.46</ele>
        <time>2017-11-27T15:10:49Z</time>
      </trkpt>
      <trkpt lat="43.32921" lon="2.64605">
        <ele>178.46</ele>
        <time>2017-11-27T15:10:58Z</time>
      </trkpt>
      <trkpt lat="43.32921" lon="2.64604">
        <ele>178.94</ele>
        <time>2017-11-27T15:11:23Z</time>
      </trkpt>
      <trkpt lat="43.32924" lon="2.6461">
        <ele>178.46</ele>
        <time>2017-11-27T15:11:35Z</time>
      </trkpt>
      <trkpt lat="43.32927" lon="2.64612">
        <ele>178.46</ele>
        <time>2017-11-27T15:11:43Z</time>
      </trkpt>
      <trkpt lat="43.32929" lon="2.64615">
        <ele>177.98</ele>
        <time>2017-11-27T15:11:47Z</time>
      </trkpt>
      <trkpt lat="43.32933" lon="2.64623">
        <ele>177.02</ele>
        <time>2017-11-27T15:11:54Z</time>
      </trkpt>
      <trkpt lat="43.32935" lon="2.64627">
        <ele>176.54</ele>
        <time>2017-11-27T15:11:58Z</time>
      </trkpt>
      <trkpt lat="43.32938" lon="2.64631">
        <ele>175.58</ele>
        <time>2017-11-27T15:12:03Z</time>
      </trkpt>
      <trkpt lat="43.32941" lon="2.64635">
        <ele>174.62</ele>
        <time>2017-11-27T15:12:07Z</time>
      </trkpt>
      <trkpt lat="43.32942" lon="2.6464">
        <ele>174.62</ele>
        <time>2017-11-27T15:12:11Z</time>
      </trkpt>
      <trkpt lat="43.32945" lon="2.64643">
        <ele>174.62</ele>
        <time>2017-11-27T15:12:14Z</time>
      </trkpt>
      <trkpt lat="43.32956" lon="2.64657">
        <ele>174.62</ele>
        <time>2017-11-27T15:12:29Z</time>
      </trkpt>
      <trkpt lat="43.32961" lon="2.64675">
        <ele>175.58</ele>
        <time>2017-11-27T15:12:43Z</time>
      </trkpt>
      <trkpt lat="43.32964" lon="2.64679">
        <ele>176.06</ele>
        <time>2017-11-27T15:12:47Z</time>
      </trkpt>
      <trkpt lat="43.32977" lon="2.64691">
        <ele>177.5</ele>
        <time>2017-11-27T15:13:01Z</time>
      </trkpt>
      <trkpt lat="43.32992" lon="2.64696">
        <ele>178.94</ele>
        <time>2017-11-27T15:13:16Z</time>
      </trkpt>
      <trkpt lat="43.33" lon="2.64699">
        <ele>180.38</ele>
        <time>2017-11-27T15:13:25Z</time>
      </trkpt>
      <trkpt lat="43.33003" lon="2.647">
        <ele>180.87</ele>
        <time>2017-11-27T15:13:27Z</time>
      </trkpt>
      <trkpt lat="43.33009" lon="2.64702">
        <ele>181.35</ele>
        <time>2017-11-27T15:13:33Z</time>
      </trkpt>
      <trkpt lat="43.33013" lon="2.64702">
        <ele>181.35</ele>
        <time>2017-11-27T15:13:37Z</time>
      </trkpt>
      <trkpt lat="43.33024" lon="2.6471">
        <ele>182.79</ele>
        <time>2017-11-27T15:13:50Z</time>
      </trkpt>
      <trkpt lat="43.33034" lon="2.64714">
        <ele>182.79</ele>
        <time>2017-11-27T15:14:00Z</time>
      </trkpt>
      <trkpt lat="43.33043" lon="2.64716">
        <ele>183.75</ele>
        <time>2017-11-27T15:14:10Z</time>
      </trkpt>
      <trkpt lat="43.33054" lon="2.64723">
        <ele>182.79</ele>
        <time>2017-11-27T15:14:24Z</time>
      </trkpt>
      <trkpt lat="43.33057" lon="2.64743">
        <ele>182.79</ele>
        <time>2017-11-27T15:14:38Z</time>
      </trkpt>
      <trkpt lat="43.33055" lon="2.64749">
        <ele>182.79</ele>
        <time>2017-11-27T15:14:43Z</time>
      </trkpt>
      <trkpt lat="43.33048" lon="2.6477">
        <ele>183.75</ele>
        <time>2017-11-27T15:14:59Z</time>
      </trkpt>
      <trkpt lat="43.33045" lon="2.64776">
        <ele>183.27</ele>
        <time>2017-11-27T15:15:04Z</time>
      </trkpt>
      <trkpt lat="43.33033" lon="2.64793">
        <ele>183.75</ele>
        <time>2017-11-27T15:15:19Z</time>
      </trkpt>
      <trkpt lat="43.33029" lon="2.64812">
        <ele>183.75</ele>
        <time>2017-11-27T15:15:30Z</time>
      </trkpt>
      <trkpt lat="43.33028" lon="2.64822">
        <ele>184.23</ele>
        <time>2017-11-27T15:15:36Z</time>
      </trkpt>
      <trkpt lat="43.33029" lon="2.64829">
        <ele>183.75</ele>
        <time>2017-11-27T15:15:40Z</time>
      </trkpt>
      <trkpt lat="43.33029" lon="2.64835">
        <ele>184.23</ele>
        <time>2017-11-27T15:15:44Z</time>
      </trkpt>
      <trkpt lat="43.3303" lon="2.64855">
        <ele>184.71</ele>
        <time>2017-11-27T15:15:56Z</time>
      </trkpt>
      <trkpt lat="43.33028" lon="2.64881">
        <ele>185.19</ele>
        <time>2017-11-27T15:16:13Z</time>
      </trkpt>
      <trkpt lat="43.33028" lon="2.64884">
        <ele>185.19</ele>
        <time>2017-11-27T15:16:15Z</time>
      </trkpt>
      <trkpt lat="43.33027" lon="2.64896">
        <ele>185.67</ele>
        <time>2017-11-27T15:16:24Z</time>
      </trkpt>
      <trkpt lat="43.33028" lon="2.64902">
        <ele>186.15</ele>
        <time>2017-11-27T15:16:28Z</time>
      </trkpt>
      <trkpt lat="43.33028" lon="2.64916">
        <ele>186.15</ele>
        <time>2017-11-27T15:16:38Z</time>
      </trkpt>
      <trkpt lat="43.33029" lon="2.64918">
        <ele>187.11</ele>
        <time>2017-11-27T15:16:41Z</time>
      </trkpt>
      <trkpt lat="43.33028" lon="2.64921">
        <ele>187.59</ele>
        <time>2017-11-27T15:16:43Z</time>
      </trkpt>
      <trkpt lat="43.33029" lon="2.64929">
        <ele>187.59</ele>
        <time>2017-11-27T15:16:48Z</time>
      </trkpt>
      <trkpt lat="43.3303" lon="2.64946">
        <ele>188.56</ele>
        <time>2017-11-27T15:16:59Z</time>
      </trkpt>
      <trkpt lat="43.33029" lon="2.64965">
        <ele>190.48</ele>
        <time>2017-11-27T15:17:12Z</time>
      </trkpt>
      <trkpt lat="43.3303" lon="2.64978">
        <ele>191.92</ele>
        <time>2017-11-27T15:17:22Z</time>
      </trkpt>
      <trkpt lat="43.3303" lon="2.64982">
        <ele>192.4</ele>
        <time>2017-11-27T15:17:25Z</time>
      </trkpt>
      <trkpt lat="43.3303" lon="2.64987">
        <ele>192.4</ele>
        <time>2017-11-27T15:17:29Z</time>
      </trkpt>
      <trkpt lat="43.3303" lon="2.64991">
        <ele>192.88</ele>
        <time>2017-11-27T15:17:32Z</time>
      </trkpt>
      <trkpt lat="43.33028" lon="2.65008">
        <ele>194.32</ele>
        <time>2017-11-27T15:17:43Z</time>
      </trkpt>
      <trkpt lat="43.33028" lon="2.65011">
        <ele>194.32</ele>
        <time>2017-11-27T15:17:45Z</time>
      </trkpt>
      <trkpt lat="43.33029" lon="2.65024">
        <ele>195.28</ele>
        <time>2017-11-27T15:17:52Z</time>
      </trkpt>
      <trkpt lat="43.33029" lon="2.65028">
        <ele>195.28</ele>
        <time>2017-11-27T15:17:54Z</time>
      </trkpt>
      <trkpt lat="43.33033" lon="2.65052">
        <ele>196.25</ele>
        <time>2017-11-27T15:18:09Z</time>
      </trkpt>
      <trkpt lat="43.33036" lon="2.65064">
        <ele>197.69</ele>
        <time>2017-11-27T15:18:22Z</time>
      </trkpt>
      <trkpt lat="43.33034" lon="2.65072">
        <ele>198.17</ele>
        <time>2017-11-27T15:18:36Z</time>
      </trkpt>
      <trkpt lat="43.33033" lon="2.65077">
        <ele>197.21</ele>
        <time>2017-11-27T15:18:46Z</time>
      </trkpt>
      <trkpt lat="43.33031" lon="2.65079">
        <ele>197.21</ele>
        <time>2017-11-27T15:18:58Z</time>
      </trkpt>
      <trkpt lat="43.3303" lon="2.65079">
        <ele>197.21</ele>
        <time>2017-11-27T15:19:13Z</time>
      </trkpt>
      <trkpt lat="43.3303" lon="2.6508">
        <ele>197.21</ele>
        <time>2017-11-27T15:19:25Z</time>
      </trkpt>
      <trkpt lat="43.33025" lon="2.65078">
        <ele>197.69</ele>
        <time>2017-11-27T15:19:33Z</time>
      </trkpt>
      <trkpt lat="43.33018" lon="2.65073">
        <ele>196.73</ele>
        <time>2017-11-27T15:19:43Z</time>
      </trkpt>
      <trkpt lat="43.33014" lon="2.65073">
        <ele>196.25</ele>
        <time>2017-11-27T15:19:55Z</time>
      </trkpt>
      <trkpt lat="43.33013" lon="2.65074">
        <ele>196.25</ele>
        <time>2017-11-27T15:20:00Z</time>
      </trkpt>
      <trkpt lat="43.33004" lon="2.65092">
        <ele>196.25</ele>
        <time>2017-11-27T15:20:14Z</time>
      </trkpt>
      <trkpt lat="43.32998" lon="2.65105">
        <ele>195.77</ele>
        <time>2017-11-27T15:20:23Z</time>
      </trkpt>
      <trkpt lat="43.32994" lon="2.65119">
        <ele>195.77</ele>
        <time>2017-11-27T15:20:36Z</time>
      </trkpt>
      <trkpt lat="43.32996" lon="2.65125">
        <ele>195.77</ele>
        <time>2017-11-27T15:20:46Z</time>
      </trkpt>
      <trkpt lat="43.32996" lon="2.65132">
        <ele>195.77</ele>
        <time>2017-11-27T15:20:55Z</time>
      </trkpt>
      <trkpt lat="43.32995" lon="2.65134">
        <ele>195.77</ele>
        <time>2017-11-27T15:20:57Z</time>
      </trkpt>
      <trkpt lat="43.32993" lon="2.65137">
        <ele>195.77</ele>
        <time>2017-11-27T15:21:00Z</time>
      </trkpt>
      <trkpt lat="43.32989" lon="2.65147">
        <ele>196.25</ele>
        <time>2017-11-27T15:21:09Z</time>
      </trkpt>
      <trkpt lat="43.32987" lon="2.65155">
        <ele>195.28</ele>
        <time>2017-11-27T15:21:15Z</time>
      </trkpt>
      <trkpt lat="43.32986" lon="2.65169">
        <ele>194.8</ele>
        <time>2017-11-27T15:21:27Z</time>
      </trkpt>
      <trkpt lat="43.32983" lon="2.65178">
        <ele>194.8</ele>
        <time>2017-11-27T15:21:35Z</time>
      </trkpt>
      <trkpt lat="43.3298" lon="2.65188">
        <ele>193.84</ele>
        <time>2017-11-27T15:21:43Z</time>
      </trkpt>
      <trkpt lat="43.32977" lon="2.65197">
        <ele>193.36</ele>
        <time>2017-11-27T15:21:50Z</time>
      </trkpt>
      <trkpt lat="43.32972" lon="2.65217">
        <ele>192.88</ele>
        <time>2017-11-27T15:22:05Z</time>
      </trkpt>
      <trkpt lat="43.32967" lon="2.65237">
        <ele>192.88</ele>
        <time>2017-11-27T15:22:20Z</time>
      </trkpt>
      <trkpt lat="43.32963" lon="2.65254">
        <ele>192.88</ele>
        <time>2017-11-27T15:22:32Z</time>
      </trkpt>
      <trkpt lat="43.32958" lon="2.65274">
        <ele>192.88</ele>
        <time>2017-11-27T15:22:47Z</time>
      </trkpt>
      <trkpt lat="43.3295" lon="2.65289">
        <ele>192.4</ele>
        <time>2017-11-27T15:23:01Z</time>
      </trkpt>
      <trkpt lat="43.32949" lon="2.65292">
        <ele>192.4</ele>
        <time>2017-11-27T15:23:12Z</time>
      </trkpt>
      <trkpt lat="43.32947" lon="2.65295">
        <ele>191.92</ele>
        <time>2017-11-27T15:23:22Z</time>
      </trkpt>
      <trkpt lat="43.32943" lon="2.65301">
        <ele>191.44</ele>
        <time>2017-11-27T15:23:28Z</time>
      </trkpt>
      <trkpt lat="43.32936" lon="2.65313">
        <ele>190.96</ele>
        <time>2017-11-27T15:23:39Z</time>
      </trkpt>
      <trkpt lat="43.32934" lon="2.65318">
        <ele>190.96</ele>
        <time>2017-11-27T15:23:43Z</time>
      </trkpt>
      <trkpt lat="43.32927" lon="2.65335">
        <ele>190</ele>
        <time>2017-11-27T15:23:57Z</time>
      </trkpt>
      <trkpt lat="43.3292" lon="2.65349">
        <ele>189.04</ele>
        <time>2017-11-27T15:24:07Z</time>
      </trkpt>
      <trkpt lat="43.32913" lon="2.65365">
        <ele>188.56</ele>
        <time>2017-11-27T15:24:20Z</time>
      </trkpt>
      <trkpt lat="43.32913" lon="2.65367">
        <ele>188.08</ele>
        <time>2017-11-27T15:24:21Z</time>
      </trkpt>
      <trkpt lat="43.32912" lon="2.65384">
        <ele>188.08</ele>
        <time>2017-11-27T15:24:33Z</time>
      </trkpt>
      <trkpt lat="43.32913" lon="2.65388">
        <ele>187.59</ele>
        <time>2017-11-27T15:24:36Z</time>
      </trkpt>
      <trkpt lat="43.32913" lon="2.65411">
        <ele>187.59</ele>
        <time>2017-11-27T15:24:48Z</time>
      </trkpt>
      <trkpt lat="43.32914" lon="2.65434">
        <ele>187.11</ele>
        <time>2017-11-27T15:25:03Z</time>
      </trkpt>
      <trkpt lat="43.32914" lon="2.65437">
        <ele>187.11</ele>
        <time>2017-11-27T15:25:14Z</time>
      </trkpt>
      <trkpt lat="43.32914" lon="2.65439">
        <ele>187.11</ele>
        <time>2017-11-27T15:25:26Z</time>
      </trkpt>
      <trkpt lat="43.32914" lon="2.65439">
        <ele>186.63</ele>
        <time>2017-11-27T15:25:41Z</time>
      </trkpt>
      <trkpt lat="43.32913" lon="2.65443">
        <ele>187.11</ele>
        <time>2017-11-27T15:25:57Z</time>
      </trkpt>
      <trkpt lat="43.32909" lon="2.65448">
        <ele>186.63</ele>
        <time>2017-11-27T15:26:05Z</time>
      </trkpt>
      <trkpt lat="43.32905" lon="2.65454">
        <ele>186.63</ele>
        <time>2017-11-27T15:26:14Z</time>
      </trkpt>
      <trkpt lat="43.32901" lon="2.65459">
        <ele>186.15</ele>
        <time>2017-11-27T15:26:21Z</time>
      </trkpt>
      <trkpt lat="43.32897" lon="2.65461">
        <ele>185.67</ele>
        <time>2017-11-27T15:26:26Z</time>
      </trkpt>
      <trkpt lat="43.32881" lon="2.6547">
        <ele>184.23</ele>
        <time>2017-11-27T15:26:42Z</time>
      </trkpt>
      <trkpt lat="43.32877" lon="2.65476">
        <ele>184.23</ele>
        <time>2017-11-27T15:26:51Z</time>
      </trkpt>
      <trkpt lat="43.32878" lon="2.65479">
        <ele>184.23</ele>
        <time>2017-11-27T15:26:53Z</time>
      </trkpt>
      <trkpt lat="43.32893" lon="2.65487">
        <ele>184.71</ele>
        <time>2017-11-27T15:27:08Z</time>
      </trkpt>
      <trkpt lat="43.32897" lon="2.65489">
        <ele>185.19</ele>
        <time>2017-11-27T15:27:13Z</time>
      </trkpt>
      <trkpt lat="43.32905" lon="2.65503">
        <ele>184.71</ele>
        <time>2017-11-27T15:27:28Z</time>
      </trkpt>
      <trkpt lat="43.32914" lon="2.65516">
        <ele>184.71</ele>
        <time>2017-11-27T15:27:43Z</time>
      </trkpt>
      <trkpt lat="43.32917" lon="2.65518">
        <ele>184.71</ele>
        <time>2017-11-27T15:28:08Z</time>
      </trkpt>
      <trkpt lat="43.32917" lon="2.65518">
        <ele>184.71</ele>
        <time>2017-11-27T15:28:20Z</time>
      </trkpt>
      <trkpt lat="43.32917" lon="2.65519">
        <ele>184.23</ele>
        <time>2017-11-27T15:28:37Z</time>
      </trkpt>
      <trkpt lat="43.32918" lon="2.6552">
        <ele>184.71</ele>
        <time>2017-11-27T15:29:00Z</time>
      </trkpt>
      <trkpt lat="43.32918" lon="2.6552">
        <ele>184.71</ele>
        <time>2017-11-27T15:29:17Z</time>
      </trkpt>
      <trkpt lat="43.32918" lon="2.6552">
        <ele>184.71</ele>
        <time>2017-11-27T15:29:36Z</time>
      </trkpt>
      <trkpt lat="43.32918" lon="2.65522">
        <ele>184.23</ele>
        <time>2017-11-27T15:29:51Z</time>
      </trkpt>
      <trkpt lat="43.32916" lon="2.65529">
        <ele>183.75</ele>
        <time>2017-11-27T15:30:03Z</time>
      </trkpt>
      <trkpt lat="43.32915" lon="2.65532">
        <ele>184.23</ele>
        <time>2017-11-27T15:30:06Z</time>
      </trkpt>
      <trkpt lat="43.32914" lon="2.65534">
        <ele>183.75</ele>
        <time>2017-11-27T15:30:08Z</time>
      </trkpt>
      <trkpt lat="43.3291" lon="2.65542">
        <ele>183.27</ele>
        <time>2017-11-27T15:30:16Z</time>
      </trkpt>
      <trkpt lat="43.329" lon="2.65557">
        <ele>182.79</ele>
        <time>2017-11-27T15:30:31Z</time>
      </trkpt>
      <trkpt lat="43.32896" lon="2.65569">
        <ele>183.27</ele>
        <time>2017-11-27T15:30:40Z</time>
      </trkpt>
      <trkpt lat="43.32896" lon="2.65572">
        <ele>182.79</ele>
        <time>2017-11-27T15:30:42Z</time>
      </trkpt>
      <trkpt lat="43.32895" lon="2.6559">
        <ele>182.79</ele>
        <time>2017-11-27T15:30:55Z</time>
      </trkpt>
      <trkpt lat="43.32893" lon="2.65604">
        <ele>182.31</ele>
        <time>2017-11-27T15:31:05Z</time>
      </trkpt>
      <trkpt lat="43.32891" lon="2.65607">
        <ele>181.83</ele>
        <time>2017-11-27T15:31:09Z</time>
      </trkpt>
      <trkpt lat="43.3289" lon="2.65611">
        <ele>181.83</ele>
        <time>2017-11-27T15:31:12Z</time>
      </trkpt>
      <trkpt lat="43.32885" lon="2.65623">
        <ele>181.35</ele>
        <time>2017-11-27T15:31:24Z</time>
      </trkpt>
      <trkpt lat="43.32885" lon="2.65634">
        <ele>181.35</ele>
        <time>2017-11-27T15:31:36Z</time>
      </trkpt>
      <trkpt lat="43.32885" lon="2.65648">
        <ele>180.87</ele>
        <time>2017-11-27T15:31:50Z</time>
      </trkpt>
      <trkpt lat="43.32887" lon="2.65657">
        <ele>180.87</ele>
        <time>2017-11-27T15:32:05Z</time>
      </trkpt>
      <trkpt lat="43.32894" lon="2.65663">
        <ele>181.35</ele>
        <time>2017-11-27T15:32:18Z</time>
      </trkpt>
      <trkpt lat="43.32898" lon="2.65664">
        <ele>181.35</ele>
        <time>2017-11-27T15:32:23Z</time>
      </trkpt>
      <trkpt lat="43.329" lon="2.65664">
        <ele>181.35</ele>
        <time>2017-11-27T15:32:25Z</time>
      </trkpt>
      <trkpt lat="43.32906" lon="2.65665">
        <ele>181.35</ele>
        <time>2017-11-27T15:32:33Z</time>
      </trkpt>
      <trkpt lat="43.32912" lon="2.65667">
        <ele>181.35</ele>
        <time>2017-11-27T15:32:45Z</time>
      </trkpt>
      <trkpt lat="43.32912" lon="2.65665">
        <ele>181.83</ele>
        <time>2017-11-27T15:32:47Z</time>
      </trkpt>
      <trkpt lat="43.32915" lon="2.65663">
        <ele>182.31</ele>
        <time>2017-11-27T15:32:59Z</time>
      </trkpt>
      <trkpt lat="43.32916" lon="2.65665">
        <ele>182.31</ele>
        <time>2017-11-27T15:33:13Z</time>
      </trkpt>
      <trkpt lat="43.32917" lon="2.65665">
        <ele>182.79</ele>
        <time>2017-11-27T15:33:33Z</time>
      </trkpt>
      <trkpt lat="43.32917" lon="2.65665">
        <ele>182.31</ele>
        <time>2017-11-27T15:34:01Z</time>
      </trkpt>
      <trkpt lat="43.32917" lon="2.65665">
        <ele>182.79</ele>
        <time>2017-11-27T15:34:21Z</time>
      </trkpt>
      <trkpt lat="43.32919" lon="2.65669">
        <ele>182.79</ele>
        <time>2017-11-27T15:34:29Z</time>
      </trkpt>
      <trkpt lat="43.32917" lon="2.65675">
        <ele>183.27</ele>
        <time>2017-11-27T15:34:40Z</time>
      </trkpt>
      <trkpt lat="43.32917" lon="2.65682">
        <ele>183.27</ele>
        <time>2017-11-27T15:34:53Z</time>
      </trkpt>
      <trkpt lat="43.32916" lon="2.65685">
        <ele>183.27</ele>
        <time>2017-11-27T15:35:00Z</time>
      </trkpt>
      <trkpt lat="43.32915" lon="2.65691">
        <ele>182.79</ele>
        <time>2017-11-27T15:35:12Z</time>
      </trkpt>
      <trkpt lat="43.32917" lon="2.65695">
        <ele>182.79</ele>
        <time>2017-11-27T15:35:31Z</time>
      </trkpt>
      <trkpt lat="43.32917" lon="2.65695">
        <ele>183.27</ele>
        <time>2017-11-27T15:35:35Z</time>
      </trkpt>
      <trkpt lat="43.32919" lon="2.65699">
        <ele>183.27</ele>
        <time>2017-11-27T15:35:39Z</time>
      </trkpt>
      <trkpt lat="43.32936" lon="2.65702">
        <ele>183.75</ele>
        <time>2017-11-27T15:35:53Z</time>
      </trkpt>
      <trkpt lat="43.32945" lon="2.65702">
        <ele>184.23</ele>
        <time>2017-11-27T15:36:02Z</time>
      </trkpt>
      <trkpt lat="43.32962" lon="2.65705">
        <ele>185.19</ele>
        <time>2017-11-27T15:36:18Z</time>
      </trkpt>
      <trkpt lat="43.32968" lon="2.65706">
        <ele>185.19</ele>
        <time>2017-11-27T15:36:23Z</time>
      </trkpt>
      <trkpt lat="43.32979" lon="2.65706">
        <ele>186.15</ele>
        <time>2017-11-27T15:36:36Z</time>
      </trkpt>
      <trkpt lat="43.3298" lon="2.65707">
        <ele>186.15</ele>
        <time>2017-11-27T15:36:38Z</time>
      </trkpt>
      <trkpt lat="43.32983" lon="2.65707">
        <ele>185.67</ele>
        <time>2017-11-27T15:36:41Z</time>
      </trkpt>
      <trkpt lat="43.32988" lon="2.65706">
        <ele>186.63</ele>
        <time>2017-11-27T15:36:45Z</time>
      </trkpt>
      <trkpt lat="43.32991" lon="2.65706">
        <ele>186.63</ele>
        <time>2017-11-27T15:36:48Z</time>
      </trkpt>
      <trkpt lat="43.33003" lon="2.65708">
        <ele>187.59</ele>
        <time>2017-11-27T15:37:01Z</time>
      </trkpt>
      <trkpt lat="43.33008" lon="2.65709">
        <ele>188.08</ele>
        <time>2017-11-27T15:37:08Z</time>
      </trkpt>
      <trkpt lat="43.33019" lon="2.65713">
        <ele>188.56</ele>
        <time>2017-11-27T15:37:20Z</time>
      </trkpt>
      <trkpt lat="43.33022" lon="2.65715">
        <ele>188.56</ele>
        <time>2017-11-27T15:37:23Z</time>
      </trkpt>
      <trkpt lat="43.33036" lon="2.65714">
        <ele>189.04</ele>
        <time>2017-11-27T15:37:38Z</time>
      </trkpt>
      <trkpt lat="43.33037" lon="2.65714">
        <ele>190</ele>
        <time>2017-11-27T15:37:39Z</time>
      </trkpt>
      <trkpt lat="43.3304" lon="2.65714">
        <ele>190</ele>
        <time>2017-11-27T15:37:42Z</time>
      </trkpt>
      <trkpt lat="43.33053" lon="2.65712">
        <ele>190.96</ele>
        <time>2017-11-27T15:37:57Z</time>
      </trkpt>
      <trkpt lat="43.33054" lon="2.65711">
        <ele>190.96</ele>
        <time>2017-11-27T15:37:59Z</time>
      </trkpt>
      <trkpt lat="43.3307" lon="2.65708">
        <ele>192.88</ele>
        <time>2017-11-27T15:38:11Z</time>
      </trkpt>
      <trkpt lat="43.33075" lon="2.65708">
        <ele>192.88</ele>
        <time>2017-11-27T15:38:16Z</time>
      </trkpt>
      <trkpt lat="43.33078" lon="2.65706">
        <ele>193.36</ele>
        <time>2017-11-27T15:38:19Z</time>
      </trkpt>
      <trkpt lat="43.33085" lon="2.65703">
        <ele>193.84</ele>
        <time>2017-11-27T15:38:25Z</time>
      </trkpt>
      <trkpt lat="43.33093" lon="2.65701">
        <ele>193.84</ele>
        <time>2017-11-27T15:38:38Z</time>
      </trkpt>
      <trkpt lat="43.33099" lon="2.65697">
        <ele>194.32</ele>
        <time>2017-11-27T15:38:52Z</time>
      </trkpt>
      <trkpt lat="43.33103" lon="2.65695">
        <ele>194.32</ele>
        <time>2017-11-27T15:38:56Z</time>
      </trkpt>
      <trkpt lat="43.33105" lon="2.65694">
        <ele>194.32</ele>
        <time>2017-11-27T15:38:59Z</time>
      </trkpt>
      <trkpt lat="43.33107" lon="2.65691">
        <ele>194.8</ele>
        <time>2017-11-27T15:39:01Z</time>
      </trkpt>
      <trkpt lat="43.33113" lon="2.65684">
        <ele>193.84</ele>
        <time>2017-11-27T15:39:14Z</time>
      </trkpt>
      <trkpt lat="43.33113" lon="2.65684">
        <ele>193.84</ele>
        <time>2017-11-27T15:39:20Z</time>
      </trkpt>
      <trkpt lat="43.33116" lon="2.65681">
        <ele>193.84</ele>
        <time>2017-11-27T15:39:23Z</time>
      </trkpt>
      <trkpt lat="43.33125" lon="2.65677">
        <ele>193.84</ele>
        <time>2017-11-27T15:39:35Z</time>
      </trkpt>
      <trkpt lat="43.33132" lon="2.65679">
        <ele>194.8</ele>
        <time>2017-11-27T15:39:47Z</time>
      </trkpt>
      <trkpt lat="43.33135" lon="2.65683">
        <ele>194.8</ele>
        <time>2017-11-27T15:40:00Z</time>
      </trkpt>
      <trkpt lat="43.3314" lon="2.6569">
        <ele>194.8</ele>
        <time>2017-11-27T15:40:08Z</time>
      </trkpt>
      <trkpt lat="43.33149" lon="2.65702">
        <ele>195.28</ele>
        <time>2017-11-27T15:40:22Z</time>
      </trkpt>
      <trkpt lat="43.33158" lon="2.65712">
        <ele>195.28</ele>
        <time>2017-11-27T15:40:35Z</time>
      </trkpt>
      <trkpt lat="43.3316" lon="2.65715">
        <ele>195.77</ele>
        <time>2017-11-27T15:40:39Z</time>
      </trkpt>
      <trkpt lat="43.33161" lon="2.65717">
        <ele>195.77</ele>
        <time>2017-11-27T15:40:41Z</time>
      </trkpt>
      <trkpt lat="43.33172" lon="2.65733">
        <ele>196.25</ele>
        <time>2017-11-27T15:40:58Z</time>
      </trkpt>
      <trkpt lat="43.33181" lon="2.65744">
        <ele>196.25</ele>
        <time>2017-11-27T15:41:11Z</time>
      </trkpt>
      <trkpt lat="43.33191" lon="2.65752">
        <ele>196.73</ele>
        <time>2017-11-27T15:41:23Z</time>
      </trkpt>
      <trkpt lat="43.332" lon="2.65756">
        <ele>196.73</ele>
        <time>2017-11-27T15:41:32Z</time>
      </trkpt>
      <trkpt lat="43.33205" lon="2.65758">
        <ele>196.73</ele>
        <time>2017-11-27T15:41:37Z</time>
      </trkpt>
      <trkpt lat="43.33213" lon="2.65761">
        <ele>197.21</ele>
        <time>2017-11-27T15:41:46Z</time>
      </trkpt>
      <trkpt lat="43.33225" lon="2.65766">
        <ele>197.21</ele>
        <time>2017-11-27T15:41:59Z</time>
      </trkpt>
      <trkpt lat="43.33234" lon="2.65772">
        <ele>197.69</ele>
        <time>2017-11-27T15:42:11Z</time>
      </trkpt>
      <trkpt lat="43.33242" lon="2.65778">
        <ele>198.17</ele>
        <time>2017-11-27T15:42:21Z</time>
      </trkpt>
      <trkpt lat="43.33254" lon="2.65785">
        <ele>198.65</ele>
        <time>2017-11-27T15:42:34Z</time>
      </trkpt>
      <trkpt lat="43.33261" lon="2.65786">
        <ele>198.65</ele>
        <time>2017-11-27T15:42:40Z</time>
      </trkpt>
      <trkpt lat="43.33273" lon="2.65793">
        <ele>199.61</ele>
        <time>2017-11-27T15:42:54Z</time>
      </trkpt>
      <trkpt lat="43.33274" lon="2.65805">
        <ele>201.53</ele>
        <time>2017-11-27T15:43:06Z</time>
      </trkpt>
      <trkpt lat="43.33275" lon="2.65813">
        <ele>201.53</ele>
        <time>2017-11-27T15:43:14Z</time>
      </trkpt>
      <trkpt lat="43.33278" lon="2.65825">
        <ele>201.53</ele>
        <time>2017-11-27T15:43:26Z</time>
      </trkpt>
      <trkpt lat="43.33278" lon="2.65832">
        <ele>201.53</ele>
        <time>2017-11-27T15:43:32Z</time>
      </trkpt>
      <trkpt lat="43.33276" lon="2.65847">
        <ele>201.53</ele>
        <time>2017-11-27T15:43:43Z</time>
      </trkpt>
      <trkpt lat="43.33273" lon="2.65863">
        <ele>201.05</ele>
        <time>2017-11-27T15:43:55Z</time>
      </trkpt>
      <trkpt lat="43.33273" lon="2.65865">
        <ele>201.05</ele>
        <time>2017-11-27T15:43:56Z</time>
      </trkpt>
      <trkpt lat="43.33272" lon="2.65873">
        <ele>200.57</ele>
        <time>2017-11-27T15:44:03Z</time>
      </trkpt>
      <trkpt lat="43.33273" lon="2.65891">
        <ele>200.09</ele>
        <time>2017-11-27T15:44:18Z</time>
      </trkpt>
      <trkpt lat="43.33274" lon="2.65897">
        <ele>199.61</ele>
        <time>2017-11-27T15:44:29Z</time>
      </trkpt>
      <trkpt lat="43.33275" lon="2.65899">
        <ele>199.61</ele>
        <time>2017-11-27T15:44:36Z</time>
      </trkpt>
      <trkpt lat="43.33272" lon="2.65911">
        <ele>198.65</ele>
        <time>2017-11-27T15:44:47Z</time>
      </trkpt>
      <trkpt lat="43.33273" lon="2.65916">
        <ele>198.65</ele>
        <time>2017-11-27T15:44:52Z</time>
      </trkpt>
      <trkpt lat="43.33272" lon="2.65925">
        <ele>198.65</ele>
        <time>2017-11-27T15:45:04Z</time>
      </trkpt>
      <trkpt lat="43.3327" lon="2.65941">
        <ele>197.69</ele>
        <time>2017-11-27T15:45:17Z</time>
      </trkpt>
      <trkpt lat="43.33267" lon="2.6595">
        <ele>196.73</ele>
        <time>2017-11-27T15:45:28Z</time>
      </trkpt>
      <trkpt lat="43.33264" lon="2.6596">
        <ele>196.25</ele>
        <time>2017-11-27T15:45:38Z</time>
      </trkpt>
      <trkpt lat="43.33261" lon="2.6597">
        <ele>195.77</ele>
        <time>2017-11-27T15:45:50Z</time>
      </trkpt>
      <trkpt lat="43.33257" lon="2.65979">
        <ele>195.28</ele>
        <time>2017-11-27T15:46:01Z</time>
      </trkpt>
      <trkpt lat="43.33254" lon="2.6599">
        <ele>194.8</ele>
        <time>2017-11-27T15:46:13Z</time>
      </trkpt>
      <trkpt lat="43.33253" lon="2.66003">
        <ele>194.32</ele>
        <time>2017-11-27T15:46:25Z</time>
      </trkpt>
      <trkpt lat="43.33252" lon="2.66009">
        <ele>194.32</ele>
        <time>2017-11-27T15:46:31Z</time>
      </trkpt>
      <trkpt lat="43.33254" lon="2.66017">
        <ele>194.32</ele>
        <time>2017-11-27T15:46:37Z</time>
      </trkpt>
      <trkpt lat="43.33258" lon="2.6603">
        <ele>193.36</ele>
        <time>2017-11-27T15:46:50Z</time>
      </trkpt>
      <trkpt lat="43.33254" lon="2.66036">
        <ele>192.4</ele>
        <time>2017-11-27T15:47:00Z</time>
      </trkpt>
      <trkpt lat="43.3325" lon="2.66049">
        <ele>191.92</ele>
        <time>2017-11-27T15:47:12Z</time>
      </trkpt>
      <trkpt lat="43.3325" lon="2.66051">
        <ele>192.4</ele>
        <time>2017-11-27T15:47:14Z</time>
      </trkpt>
      <trkpt lat="43.33246" lon="2.66063">
        <ele>191.44</ele>
        <time>2017-11-27T15:47:26Z</time>
      </trkpt>
      <trkpt lat="43.33245" lon="2.66078">
        <ele>190.96</ele>
        <time>2017-11-27T15:47:38Z</time>
      </trkpt>
      <trkpt lat="43.33244" lon="2.66091">
        <ele>190</ele>
        <time>2017-11-27T15:47:47Z</time>
      </trkpt>
      <trkpt lat="43.33242" lon="2.66093">
        <ele>191.92</ele>
        <time>2017-11-27T15:47:49Z</time>
      </trkpt>
      <trkpt lat="43.33241" lon="2.66095">
        <ele>185.19</ele>
        <time>2017-11-27T15:47:51Z</time>
      </trkpt>
      <trkpt lat="43.33241" lon="2.66097">
        <ele>191.44</ele>
        <time>2017-11-27T15:47:52Z</time>
      </trkpt>
      <trkpt lat="43.3324" lon="2.66102">
        <ele>190</ele>
        <time>2017-11-27T15:47:55Z</time>
      </trkpt>
      <trkpt lat="43.33239" lon="2.66105">
        <ele>189.52</ele>
        <time>2017-11-27T15:47:57Z</time>
      </trkpt>
      <trkpt lat="43.33239" lon="2.66127">
        <ele>189.04</ele>
        <time>2017-11-27T15:48:13Z</time>
      </trkpt>
      <trkpt lat="43.3324" lon="2.66132">
        <ele>189.04</ele>
        <time>2017-11-27T15:48:17Z</time>
      </trkpt>
      <trkpt lat="43.33243" lon="2.66141">
        <ele>189.04</ele>
        <time>2017-11-27T15:48:32Z</time>
      </trkpt>
      <trkpt lat="43.33243" lon="2.66143">
        <ele>184.71</ele>
        <time>2017-11-27T15:48:36Z</time>
      </trkpt>
      <trkpt lat="43.33244" lon="2.66143">
        <ele>189.04</ele>
        <time>2017-11-27T15:48:37Z</time>
      </trkpt>
    </trkseg>
  </trk>
</gpx>